Observation data for Sweetwater on 01/12/2018      Previous  Date  Next       Current Mesonet Observations  Soil Data  Daily Summary Page  Observations in Plain Language
KSW1 120600Z 02009KT M01/M09 A3029 RMK A01 T10121092  RH  054%=      5-min Rain = 0
KSW1 120601Z 03008KT M01/M09 A3029 RMK A01 T10121092  RH  054%=      5-min Rain = 0
KSW1 120602Z 03008KT M01/M09 A3029 RMK A01 T10121092  RH  054%=      5-min Rain = 0
KSW1 120603Z 03008KT M01/M09 A3029 RMK A01 T10121092  RH  054%=      5-min Rain = 0
KSW1 120604Z 03009KT M01/M09 A3029 RMK A01 T10121092  RH  055%=      5-min Rain = 0
KSW1 120605Z 03008KT M01/M09 A3029 RMK A01 T10121092  RH  055%=      5-min Rain = 0
KSW1 120606Z 03009KT M01/M09 A3029 RMK A01 T10121092  RH  054%=      5-min Rain = 0
KSW1 120607Z 03008KT M01/M09 A3029 RMK A01 T10121092  RH  055%=      5-min Rain = 0
KSW1 120608Z 03008KT M01/M09 A3029 RMK A01 T10121092  RH  055%=      5-min Rain = 0
KSW1 120609Z 04008KT M01/M09 A3029 RMK A01 T10121092  RH  055%=      5-min Rain = 0
KSW1 120610Z 03008KT M01/M09 A3029 RMK A01 T10121092  RH  055%=      5-min Rain = 0
KSW1 120611Z 04007KT M01/M09 A3029 RMK A01 T10131092  RH  055%=      5-min Rain = 0
KSW1 120612Z 03007KT M01/M09 A3029 RMK A01 T10141093  RH  055%=      5-min Rain = 0
KSW1 120613Z 03007KT M01/M09 A3029 RMK A01 T10141093  RH  055%=      5-min Rain = 0
KSW1 120614Z 04008KT M02/M09 A3029 RMK A01 T10151093  RH  055%=      5-min Rain = 0
KSW1 120615Z 04007KT M02/M09 A3029 RMK A01 T10151093  RH  056%=      5-min Rain = 0
KSW1 120616Z 04007KT M02/M09 A3029 RMK A01 T10161093  RH  056%=      5-min Rain = 0
KSW1 120617Z 04007KT M02/M09 A3029 RMK A01 T10161093  RH  056%=      5-min Rain = 0
KSW1 120618Z 04008KT M02/M09 A3029 RMK A01 T10171093  RH  056%=      5-min Rain = 0
KSW1 120619Z 04007KT M02/M09 A3029 RMK A01 T10181093  RH  056%=      5-min Rain = 0
KSW1 120620Z 04006KT M02/M09 A3029 RMK A01 T10181094  RH  056%=      5-min Rain = 0
KSW1 120621Z 04006KT M02/M09 A3029 RMK A01 T10191093  RH  057%=      5-min Rain = 0
KSW1 120622Z 04007KT M02/M09 A3029 RMK A01 T10191094  RH  057%=      5-min Rain = 0
KSW1 120623Z 04007KT M02/M09 A3029 RMK A01 T10211094  RH  057%=      5-min Rain = 0
KSW1 120624Z 04007KT M02/M09 A3029 RMK A01 T10211094  RH  057%=      5-min Rain = 0
KSW1 120625Z 04006KT M02/M09 A3029 RMK A01 T10221094  RH  058%=      5-min Rain = 0
KSW1 120626Z 04007KT M02/M09 A3029 RMK A01 T10221094  RH  058%=      5-min Rain = 0
KSW1 120627Z 04006KT M02/M09 A3029 RMK A01 T10221094  RH  058%=      5-min Rain = 0
KSW1 120628Z 04006KT M02/M09 A3029 RMK A01 T10231094  RH  058%=      5-min Rain = 0
KSW1 120629Z 04006KT M02/M09 A3029 RMK A01 T10231094  RH  058%=      5-min Rain = 0
KSW1 120630Z 04006KT M02/M09 A3029 RMK A01 T10241094  RH  058%=      5-min Rain = 0
KSW1 120631Z 04007KT M02/M09 A3029 RMK A01 T10241094  RH  059%=      5-min Rain = 0
KSW1 120632Z 04006KT M02/M09 A3029 RMK A01 T10241094  RH  059%=      5-min Rain = 0
KSW1 120633Z 04006KT M02/M09 A3029 RMK A01 T10241094  RH  059%=      5-min Rain = 0
KSW1 120634Z 04006KT M03/M09 A3029 RMK A01 T10251094  RH  059%=      5-min Rain = 0
KSW1 120635Z 04006KT M03/M10 A3029 RMK A01 T10261095  RH  059%=      5-min Rain = 0
KSW1 120636Z 04006KT M03/M10 A3029 RMK A01 T10261095  RH  059%=      5-min Rain = 0
KSW1 120637Z 04006KT M03/M10 A3029 RMK A01 T10271095  RH  059%=      5-min Rain = 0
KSW1 120638Z 04007KT M03/M10 A3029 RMK A01 T10271095  RH  060%=      5-min Rain = 0
KSW1 120639Z 04007KT M03/M10 A3029 RMK A01 T10271095  RH  060%=      5-min Rain = 0
KSW1 120640Z 04006KT M03/M10 A3029 RMK A01 T10281095  RH  060%=      5-min Rain = 0
KSW1 120641Z 04006KT M03/M10 A3029 RMK A01 T10281095  RH  060%=      5-min Rain = 0
KSW1 120642Z 03006KT M03/M10 A3029 RMK A01 T10281095  RH  060%=      5-min Rain = 0
KSW1 120643Z 03007KT M03/M10 A3029 RMK A01 T10281095  RH  060%=      5-min Rain = 0
KSW1 120644Z 03007KT M03/M10 A3029 RMK A01 T10281095  RH  060%=      5-min Rain = 0
KSW1 120645Z 03007KT M03/M10 A3029 RMK A01 T10271095  RH  060%=      5-min Rain = 0
KSW1 120646Z 03007KT M03/M09 A3029 RMK A01 T10271094  RH  060%=      5-min Rain = 0
KSW1 120647Z 03007KT M03/M10 A3029 RMK A01 T10271095  RH  060%=      5-min Rain = 0
KSW1 120648Z 03007KT M03/M09 A3029 RMK A01 T10271094  RH  060%=      5-min Rain = 0
KSW1 120649Z 03008KT M03/M09 A3029 RMK A01 T10271094  RH  060%=      5-min Rain = 0
KSW1 120650Z 03008KT M03/M09 A3029 RMK A01 T10271094  RH  060%=      5-min Rain = 0
KSW1 120651Z 03008KT M03/M09 A3029 RMK A01 T10271094  RH  060%=      5-min Rain = 0
KSW1 120652Z 03007KT M03/M09 A3029 RMK A01 T10271094  RH  060%=      5-min Rain = 0
KSW1 120653Z 03007KT M03/M09 A3029 RMK A01 T10271094  RH  060%=      5-min Rain = 0
KSW1 120654Z 03008KT M03/M10 A3029 RMK A01 T10281095  RH  060%=      5-min Rain = 0
KSW1 120655Z 03008KT M03/M10 A3029 RMK A01 T10281095  RH  060%=      5-min Rain = 0
KSW1 120656Z 03008KT M03/M10 A3029 RMK A01 T10281095  RH  060%=      5-min Rain = 0
KSW1 120657Z 03008KT M03/M10 A3029 RMK A01 T10291095  RH  060%=      5-min Rain = 0
KSW1 120658Z 03009KT M03/M10 A3029 RMK A01 T10291095  RH  060%=      5-min Rain = 0
KSW1 120659Z 03009KT M03/M10 A3029 RMK A01 T10291095  RH  060%=      5-min Rain = 0
KSW1 120700Z 03008KT M03/M10 A3029 RMK A01 T10291095  RH  060%=      5-min Rain = 0
KSW1 120701Z 02008KT M03/M10 A3029 RMK A01 T10291095  RH  060%=      5-min Rain = 0
KSW1 120702Z 02008KT M03/M10 A3029 RMK A01 T10291095  RH  061%=      5-min Rain = 0
KSW1 120703Z 02008KT M03/M10 A3029 RMK A01 T10291095  RH  061%=      5-min Rain = 0
KSW1 120704Z 02008KT M03/M09 A3029 RMK A01 T10291094  RH  061%=      5-min Rain = 0
KSW1 120705Z 02008KT M03/M09 A3029 RMK A01 T10291094  RH  061%=      5-min Rain = 0
KSW1 120706Z 02008KT M03/M09 A3029 RMK A01 T10291094  RH  061%=      5-min Rain = 0
KSW1 120707Z 02008KT M03/M09 A3029 RMK A01 T10291094  RH  061%=      5-min Rain = 0
KSW1 120708Z 02008KT M03/M10 A3029 RMK A01 T10301095  RH  061%=      5-min Rain = 0
KSW1 120709Z 02008KT M03/M10 A3029 RMK A01 T10301095  RH  061%=      5-min Rain = 0
KSW1 120710Z 02007KT M03/M10 A3029 RMK A01 T10301095  RH  061%=      5-min Rain = 0
KSW1 120711Z 02007KT M03/M10 A3029 RMK A01 T10311095  RH  061%=      5-min Rain = 0
KSW1 120712Z 02007KT M03/M10 A3029 RMK A01 T10311095  RH  061%=      5-min Rain = 0
KSW1 120713Z 02007KT M03/M10 A3029 RMK A01 T10321095  RH  061%=      5-min Rain = 0
KSW1 120714Z 02007KT M03/M10 A3029 RMK A01 T10321096  RH  061%=      5-min Rain = 0
KSW1 120715Z 03007KT M03/M10 A3029 RMK A01 T10331096  RH  062%=      5-min Rain = 0
KSW1 120716Z 03007KT M03/M10 A3029 RMK A01 T10331096  RH  062%=      5-min Rain = 0
KSW1 120717Z 03008KT M03/M10 A3029 RMK A01 T10341096  RH  062%=      5-min Rain = 0
KSW1 120718Z 03008KT M03/M10 A3029 RMK A01 T10341096  RH  062%=      5-min Rain = 0
KSW1 120719Z 03009KT M04/M10 A3029 RMK A01 T10351096  RH  062%=      5-min Rain = 0
KSW1 120720Z 03009KT M04/M10 A3029 RMK A01 T10351096  RH  063%=      5-min Rain = 0
KSW1 120721Z 03009KT M04/M10 A3029 RMK A01 T10351095  RH  063%=      5-min Rain = 0
KSW1 120722Z 03009KT M04/M10 A3029 RMK A01 T10351095  RH  063%=      5-min Rain = 0
KSW1 120723Z 03009KT M03/M09 A3029 RMK A01 T10341094  RH  063%=      5-min Rain = 0
KSW1 120724Z 03009KT M03/M09 A3029 RMK A01 T10331094  RH  063%=      5-min Rain = 0
KSW1 120725Z 03008KT M03/M09 A3029 RMK A01 T10331093  RH  063%=      5-min Rain = 0
KSW1 120726Z 03008KT M03/M09 A3029 RMK A01 T10321093  RH  063%=      5-min Rain = 0
KSW1 120727Z 03007KT M03/M09 A3029 RMK A01 T10311093  RH  063%=      5-min Rain = 0
KSW1 120728Z 03007KT M03/M09 A3029 RMK A01 T10311093  RH  062%=      5-min Rain = 0
KSW1 120729Z 02007KT M03/M09 A3029 RMK A01 T10311093  RH  062%=      5-min Rain = 0
KSW1 120730Z 02007KT M03/M09 A3028 RMK A01 T10301093  RH  062%=      5-min Rain = 0
KSW1 120731Z 02006KT M03/M09 A3029 RMK A01 T10301092  RH  062%=      5-min Rain = 0
KSW1 120732Z 03006KT M03/M09 A3029 RMK A01 T10311093  RH  062%=      5-min Rain = 0
KSW1 120733Z 03006KT M03/M09 A3029 RMK A01 T10311093  RH  062%=      5-min Rain = 0
KSW1 120734Z 03006KT M03/M09 A3029 RMK A01 T10301092  RH  062%=      5-min Rain = 0
KSW1 120735Z 04005KT M03/M09 A3029 RMK A01 T10301092  RH  062%=      5-min Rain = 0
KSW1 120736Z 04005KT M03/M09 A3029 RMK A01 T10301093  RH  062%=      5-min Rain = 0
KSW1 120737Z 04006KT M03/M09 A3029 RMK A01 T10311093  RH  062%=      5-min Rain = 0
KSW1 120738Z 04005KT M03/M09 A3029 RMK A01 T10321094  RH  062%=      5-min Rain = 0
KSW1 120739Z 05005KT M03/M10 A3029 RMK A01 T10331095  RH  062%=      5-min Rain = 0
KSW1 120740Z 05005KT M04/M10 A3029 RMK A01 T10351096  RH  063%=      5-min Rain = 0
KSW1 120741Z 06005KT M04/M10 A3028 RMK A01 T10361097  RH  063%=      5-min Rain = 0
KSW1 120742Z 06006KT M04/M10 A3028 RMK A01 T10381098  RH  063%=      5-min Rain = 0
KSW1 120743Z 06005KT M04/M10 A3028 RMK A01 T10391097  RH  064%=      5-min Rain = 0
KSW1 120744Z 06005KT M04/M10 A3029 RMK A01 T10401097  RH  065%=      5-min Rain = 0
KSW1 120745Z 06004KT M04/M10 A3029 RMK A01 T10411096  RH  065%=      5-min Rain = 0
KSW1 120746Z 06004KT M04/M10 A3029 RMK A01 T10411096  RH  065%=      5-min Rain = 0
KSW1 120747Z 06004KT M04/M10 A3029 RMK A01 T10401095  RH  066%=      5-min Rain = 0
KSW1 120748Z 06005KT M04/M09 A3029 RMK A01 T10401094  RH  066%=      5-min Rain = 0
KSW1 120749Z 05005KT M04/M09 A3029 RMK A01 T10391094  RH  065%=      5-min Rain = 0
KSW1 120750Z 05005KT M04/M10 A3029 RMK A01 T10391095  RH  065%=      5-min Rain = 0
KSW1 120751Z 05006KT M04/M10 A3029 RMK A01 T10391095  RH  065%=      5-min Rain = 0
KSW1 120752Z 05006KT M04/M10 A3029 RMK A01 T10391095  RH  065%=      5-min Rain = 0
KSW1 120753Z 05006KT M04/M09 A3029 RMK A01 T10391094  RH  065%=      5-min Rain = 0
KSW1 120754Z 05005KT M04/M09 A3029 RMK A01 T10391094  RH  065%=      5-min Rain = 0
KSW1 120755Z 05005KT M04/M09 A3029 RMK A01 T10381094  RH  065%=      5-min Rain = 0
KSW1 120756Z 05005KT M04/M09 A3029 RMK A01 T10381094  RH  065%=      5-min Rain = 0
KSW1 120757Z 05005KT M04/M09 A3029 RMK A01 T10381094  RH  065%=      5-min Rain = 0
KSW1 120758Z 05003KT M04/M09 A3029 RMK A01 T10381094  RH  065%=      5-min Rain = 0
KSW1 120759Z 05003KT M04/M09 A3029 RMK A01 T10381094  RH  065%=      5-min Rain = 0
KSW1 120800Z 06003KT M04/M09 A3029 RMK A01 T10381094  RH  065%=      5-min Rain = 0
KSW1 120801Z 06002KT M04/M09 A3029 RMK A01 T10381093  RH  065%=      5-min Rain = 0
KSW1 120802Z 06001KT M04/M09 A303 RMK A01 T10371093  RH  065%=      5-min Rain = 0
KSW1 120803Z 08002KT M04/M09 A3029 RMK A01 T10371094  RH  065%=      5-min Rain = 0
KSW1 120804Z 09001KT M04/M09 A3029 RMK A01 T10371094  RH  065%=      5-min Rain = 0
KSW1 120805Z 10002KT M04/M10 A3029 RMK A01 T10381095  RH  064%=      5-min Rain = 0
KSW1 120806Z 09002KT M04/M10 A3029 RMK A01 T10401098  RH  064%=      5-min Rain = 0
KSW1 120807Z 09002KT M04/M10 A3029 RMK A01 T10411098  RH  064%=      5-min Rain = 0
KSW1 120808Z 09002KT M04/M10 A3029 RMK A01 T10421097  RH  065%=      5-min Rain = 0
KSW1 120809Z 09002KT M04/M10 A3029 RMK A01 T10421097  RH  066%=      5-min Rain = 0
KSW1 120810Z 10001KT M04/M10 A3029 RMK A01 T10421097  RH  066%=      5-min Rain = 0
KSW1 120811Z 08002KT M04/M10 A3029 RMK A01 T10421096  RH  066%=      5-min Rain = 0
KSW1 120812Z 08001KT M04/M10 A3029 RMK A01 T10421097  RH  066%=      5-min Rain = 0
KSW1 120813Z 08002KT M04/M10 A3029 RMK A01 T10431097  RH  066%=      5-min Rain = 0
KSW1 120814Z 09002KT M04/M10 A3029 RMK A01 T10431098  RH  066%=      5-min Rain = 0
KSW1 120815Z 09002KT M04/M10 A3029 RMK A01 T10441098  RH  066%=      5-min Rain = 0
KSW1 120816Z 09002KT M04/M10 A3029 RMK A01 T10441098  RH  066%=      5-min Rain = 0
KSW1 120817Z 08002KT M05/M10 A3029 RMK A01 T10451098  RH  066%=      5-min Rain = 0
KSW1 120818Z 08002KT M05/M10 A3029 RMK A01 T10451098  RH  066%=      5-min Rain = 0
KSW1 120819Z 08002KT M05/M10 A3029 RMK A01 T10461098  RH  067%=      5-min Rain = 0
KSW1 120820Z 08002KT M05/M10 A3029 RMK A01 T10461098  RH  067%=      5-min Rain = 0
KSW1 120821Z 08002KT M05/M10 A3029 RMK A01 T10471099  RH  067%=      5-min Rain = 0
KSW1 120822Z 08002KT M05/M10 A3029 RMK A01 T10471099  RH  067%=      5-min Rain = 0
KSW1 120823Z 07003KT M05/M10 A3029 RMK A01 T10481099  RH  067%=      5-min Rain = 0
KSW1 120824Z 07004KT M05/M10 A3029 RMK A01 T10481098  RH  068%=      5-min Rain = 0
KSW1 120825Z 07004KT M05/M10 A3029 RMK A01 T10481098  RH  068%=      5-min Rain = 0
KSW1 120826Z 07004KT M05/M10 A3029 RMK A01 T10481098  RH  068%=      5-min Rain = 0
KSW1 120827Z 07005KT M05/M10 A3028 RMK A01 T10491099  RH  068%=      5-min Rain = 0
KSW1 120828Z 07005KT M05/M10 A3028 RMK A01 T10501100  RH  068%=      5-min Rain = 0
KSW1 120829Z 07006KT M05/M10 A3028 RMK A01 T10511102  RH  068%=      5-min Rain = 0
KSW1 120830Z 06007KT M05/M10 A3028 RMK A01 T10531102  RH  068%=      5-min Rain = 0
KSW1 120831Z 06008KT M05/M10 A3028 RMK A01 T10541102  RH  069%=      5-min Rain = 0
KSW1 120832Z 06008KT M05/M10 A3028 RMK A01 T10541101  RH  070%=      5-min Rain = 0
KSW1 120833Z 06009KT M05/M10 A3028 RMK A01 T10531098  RH  071%=      5-min Rain = 0
KSW1 120834Z 06008KT M05/M10 A3028 RMK A01 T10511096  RH  071%=      5-min Rain = 0
KSW1 120835Z 06007KT M05/M09 A3029 RMK A01 T10491094  RH  071%=      5-min Rain = 0
KSW1 120836Z 06007KT M05/M09 A3028 RMK A01 T10471094  RH  070%=      5-min Rain = 0
KSW1 120837Z 05007KT M05/M09 A3029 RMK A01 T10451093  RH  069%=      5-min Rain = 0
KSW1 120838Z 05006KT M04/M09 A3029 RMK A01 T10441093  RH  068%=      5-min Rain = 0
KSW1 120839Z 05006KT M04/M09 A3028 RMK A01 T10431094  RH  068%=      5-min Rain = 0
KSW1 120840Z 05006KT M04/M09 A3028 RMK A01 T10421094  RH  067%=      5-min Rain = 0
KSW1 120841Z 04005KT M04/M09 A3028 RMK A01 T10411094  RH  067%=      5-min Rain = 0
KSW1 120842Z 04005KT M04/M09 A3028 RMK A01 T10411094  RH  066%=      5-min Rain = 0
KSW1 120843Z 05005KT M04/M09 A3028 RMK A01 T10401094  RH  066%=      5-min Rain = 0
KSW1 120844Z 04004KT M04/M09 A3028 RMK A01 T10391094  RH  066%=      5-min Rain = 0
KSW1 120845Z 04005KT M04/M09 A3028 RMK A01 T10381094  RH  065%=      5-min Rain = 0
KSW1 120846Z 04005KT M04/M09 A3028 RMK A01 T10381094  RH  065%=      5-min Rain = 0
KSW1 120847Z 05006KT M04/M10 A3028 RMK A01 T10381095  RH  065%=      5-min Rain = 0
KSW1 120848Z 05007KT M04/M10 A3028 RMK A01 T10391095  RH  065%=      5-min Rain = 0
KSW1 120849Z 05006KT M04/M10 A3028 RMK A01 T10401095  RH  066%=      5-min Rain = 0
KSW1 120850Z 05006KT M04/M09 A3028 RMK A01 T10411094  RH  066%=      5-min Rain = 0
KSW1 120851Z 05007KT M04/M09 A3028 RMK A01 T10401093  RH  066%=      5-min Rain = 0
KSW1 120852Z 05006KT M04/M09 A3028 RMK A01 T10381092  RH  066%=      5-min Rain = 0
KSW1 120853Z 05006KT M04/M09 A3027 RMK A01 T10381092  RH  066%=      5-min Rain = 0
KSW1 120854Z 05006KT M04/M09 A3027 RMK A01 T10381092  RH  066%=      5-min Rain = 0
KSW1 120855Z 05006KT M04/M09 A3028 RMK A01 T10371092  RH  066%=      5-min Rain = 0
KSW1 120856Z 05007KT M04/M09 A3028 RMK A01 T10361092  RH  065%=      5-min Rain = 0
KSW1 120857Z 05006KT M04/M09 A3028 RMK A01 T10351092  RH  065%=      5-min Rain = 0
KSW1 120858Z 05008KT M04/M09 A3028 RMK A01 T10351092  RH  065%=      5-min Rain = 0
KSW1 120859Z 05008KT M04/M09 A3028 RMK A01 T10351092  RH  065%=      5-min Rain = 0
KSW1 120900Z 05008KT M04/M09 A3028 RMK A01 T10351092  RH  065%=      5-min Rain = 0
KSW1 120901Z 05007KT M04/M09 A3028 RMK A01 T10351092  RH  064%=      5-min Rain = 0
KSW1 120902Z 05007KT M04/M09 A3028 RMK A01 T10351093  RH  064%=      5-min Rain = 0
KSW1 120903Z 05007KT M04/M09 A3028 RMK A01 T10351093  RH  064%=      5-min Rain = 0
KSW1 120904Z 05006KT M04/M09 A3028 RMK A01 T10351093  RH  064%=      5-min Rain = 0
KSW1 120905Z 04006KT M04/M09 A3028 RMK A01 T10351093  RH  064%=      5-min Rain = 0
KSW1 120906Z 04006KT M04/M09 A3028 RMK A01 T10351093  RH  064%=      5-min Rain = 0
KSW1 120907Z 04005KT M04/M09 A3028 RMK A01 T10351093  RH  064%=      5-min Rain = 0
KSW1 120908Z 03005KT M04/M09 A3028 RMK A01 T10351094  RH  064%=      5-min Rain = 0
KSW1 120909Z 03006KT M04/M09 A3028 RMK A01 T10361094  RH  064%=      5-min Rain = 0
KSW1 120910Z 03006KT M04/M09 A3028 RMK A01 T10361094  RH  064%=      5-min Rain = 0
KSW1 120911Z 03006KT M04/M09 A3028 RMK A01 T10371094  RH  064%=      5-min Rain = 0
KSW1 120912Z 04007KT M04/M09 A3028 RMK A01 T10371094  RH  065%=      5-min Rain = 0
KSW1 120913Z 04007KT M04/M09 A3028 RMK A01 T10381094  RH  065%=      5-min Rain = 0
KSW1 120914Z 04007KT M04/M09 A3027 RMK A01 T10381094  RH  065%=      5-min Rain = 0
KSW1 120915Z 04007KT M04/M10 A3027 RMK A01 T10381095  RH  065%=      5-min Rain = 0
KSW1 120916Z 05007KT M04/M10 A3027 RMK A01 T10391095  RH  065%=      5-min Rain = 0
KSW1 120917Z 05007KT M04/M10 A3027 RMK A01 T10391095  RH  065%=      5-min Rain = 0
KSW1 120918Z 05007KT M04/M10 A3027 RMK A01 T10401095  RH  065%=      5-min Rain = 0
KSW1 120919Z 05006KT M04/M10 A3027 RMK A01 T10401095  RH  066%=      5-min Rain = 0
KSW1 120920Z 05007KT M04/M09 A3027 RMK A01 T10401094  RH  066%=      5-min Rain = 0
KSW1 120921Z 06006KT M04/M09 A3027 RMK A01 T10391094  RH  066%=      5-min Rain = 0
KSW1 120922Z 05006KT M04/M09 A3027 RMK A01 T10391094  RH  066%=      5-min Rain = 0
KSW1 120923Z 05007KT M04/M09 A3027 RMK A01 T10391094  RH  066%=      5-min Rain = 0
KSW1 120924Z 05006KT M04/M09 A3027 RMK A01 T10381094  RH  065%=      5-min Rain = 0
KSW1 120925Z 05006KT M04/M09 A3027 RMK A01 T10381093  RH  065%=      5-min Rain = 0
KSW1 120926Z 05006KT M04/M09 A3027 RMK A01 T10381094  RH  065%=      5-min Rain = 0
KSW1 120927Z 06006KT M04/M09 A3027 RMK A01 T10381093  RH  065%=      5-min Rain = 0
KSW1 120928Z 05006KT M04/M09 A3027 RMK A01 T10381093  RH  065%=      5-min Rain = 0
KSW1 120929Z 05006KT M04/M09 A3027 RMK A01 T10381094  RH  065%=      5-min Rain = 0
KSW1 120930Z 05005KT M04/M09 A3027 RMK A01 T10381094  RH  065%=      5-min Rain = 0
KSW1 120931Z 05005KT M04/M09 A3027 RMK A01 T10381094  RH  065%=      5-min Rain = 0
KSW1 120932Z 06004KT M04/M09 A3027 RMK A01 T10381094  RH  065%=      5-min Rain = 0
KSW1 120933Z 05004KT M04/M09 A3027 RMK A01 T10381094  RH  065%=      5-min Rain = 0
KSW1 120934Z 05004KT M04/M09 A3027 RMK A01 T10391094  RH  065%=      5-min Rain = 0
KSW1 120935Z 05004KT M04/M10 A3027 RMK A01 T10401095  RH  066%=      5-min Rain = 0
KSW1 120936Z 04003KT M04/M10 A3027 RMK A01 T10411095  RH  066%=      5-min Rain = 0
KSW1 120937Z 04004KT M04/M10 A3027 RMK A01 T10411095  RH  066%=      5-min Rain = 0
KSW1 120938Z 04004KT M04/M10 A3027 RMK A01 T10421095  RH  066%=      5-min Rain = 0
KSW1 120939Z 04003KT M04/M10 A3027 RMK A01 T10421095  RH  066%=      5-min Rain = 0
KSW1 120940Z 04003KT M04/M10 A3028 RMK A01 T10421095  RH  066%=      5-min Rain = 0
KSW1 120941Z 04004KT M04/M10 A3028 RMK A01 T10421095  RH  067%=      5-min Rain = 0
KSW1 120942Z 04003KT M04/M10 A3028 RMK A01 T10431095  RH  067%=      5-min Rain = 0
KSW1 120943Z 04003KT M04/M10 A3028 RMK A01 T10431095  RH  067%=      5-min Rain = 0
KSW1 120944Z 03003KT M04/M10 A3028 RMK A01 T10431096  RH  067%=      5-min Rain = 0
KSW1 120945Z 03003KT M04/M10 A3028 RMK A01 T10441096  RH  067%=      5-min Rain = 0
KSW1 120946Z 03003KT M04/M10 A3028 RMK A01 T10441096  RH  067%=      5-min Rain = 0
KSW1 120947Z 02003KT M05/M10 A3028 RMK A01 T10451096  RH  068%=      5-min Rain = 0
KSW1 120948Z 02002KT M04/M10 A3028 RMK A01 T10441095  RH  068%=      5-min Rain = 0
KSW1 120949Z 02002KT M05/M10 A3028 RMK A01 T10451096  RH  068%=      5-min Rain = 0
KSW1 120950Z 02002KT M05/M10 A3028 RMK A01 T10451096  RH  068%=      5-min Rain = 0
KSW1 120951Z 01002KT M05/M10 A3028 RMK A01 T10461096  RH  068%=      5-min Rain = 0
KSW1 120952Z 01002KT M05/M10 A3028 RMK A01 T10461096  RH  068%=      5-min Rain = 0
KSW1 120953Z 01002KT M05/M10 A3028 RMK A01 T10471097  RH  068%=      5-min Rain = 0
KSW1 120954Z 01002KT M05/M10 A3028 RMK A01 T10481097  RH  069%=      5-min Rain = 0
KSW1 120955Z 01003KT M05/M10 A3028 RMK A01 T10481096  RH  069%=      5-min Rain = 0
KSW1 120956Z 01003KT M05/M10 A3028 RMK A01 T10481096  RH  069%=      5-min Rain = 0
KSW1 120957Z 02004KT M05/M10 A3028 RMK A01 T10481097  RH  069%=      5-min Rain = 0
KSW1 120958Z 02005KT M05/M10 A3028 RMK A01 T10481097  RH  069%=      5-min Rain = 0
KSW1 120959Z 02005KT M05/M10 A3028 RMK A01 T10481096  RH  069%=      5-min Rain = 0
KSW1 121000Z 03005KT M05/M10 A3028 RMK A01 T10481096  RH  069%=      5-min Rain = 0
KSW1 121001Z 03005KT M05/M10 A3028 RMK A01 T10471096  RH  069%=      5-min Rain = 0
KSW1 121002Z 03004KT M05/M10 A3028 RMK A01 T10471096  RH  068%=      5-min Rain = 0
KSW1 121003Z 03004KT M05/M10 A3029 RMK A01 T10481098  RH  068%=      5-min Rain = 0
KSW1 121004Z 03004KT M05/M10 A3029 RMK A01 T10501099  RH  068%=      5-min Rain = 0
KSW1 121005Z 03004KT M05/M10 A3028 RMK A01 T10511099  RH  069%=      5-min Rain = 0
KSW1 121006Z 03003KT M05/M10 A3028 RMK A01 T10511099  RH  069%=      5-min Rain = 0
KSW1 121007Z 03003KT M05/M10 A3029 RMK A01 T10511098  RH  070%=      5-min Rain = 0
KSW1 121008Z 03003KT M05/M10 A3029 RMK A01 T10511097  RH  070%=      5-min Rain = 0
KSW1 121009Z 03003KT M05/M10 A3029 RMK A01 T10511098  RH  070%=      5-min Rain = 0
KSW1 121010Z 02003KT M05/M10 A3029 RMK A01 T10511098  RH  070%=      5-min Rain = 0
KSW1 121011Z 02003KT M05/M10 A3029 RMK A01 T10521098  RH  070%=      5-min Rain = 0
KSW1 121012Z 01003KT M05/M10 A3029 RMK A01 T10521098  RH  070%=      5-min Rain = 0
KSW1 121013Z 01003KT M05/M10 A3029 RMK A01 T10531099  RH  070%=      5-min Rain = 0
KSW1 121014Z 01003KT M05/M10 A3029 RMK A01 T10531099  RH  070%=      5-min Rain = 0
KSW1 121015Z 01003KT M05/M10 A3029 RMK A01 T10541099  RH  071%=      5-min Rain = 0
KSW1 121016Z 01003KT M05/M10 A3029 RMK A01 T10541099  RH  071%=      5-min Rain = 0
KSW1 121017Z 00003KT M05/M10 A3029 RMK A01 T10541098  RH  071%=      5-min Rain = 0
KSW1 121018Z 00003KT M05/M10 A3029 RMK A01 T10541098  RH  071%=      5-min Rain = 0
KSW1 121019Z 01003KT M05/M10 A3029 RMK A01 T10541098  RH  071%=      5-min Rain = 0
KSW1 121020Z 01004KT M05/M10 A3029 RMK A01 T10541098  RH  071%=      5-min Rain = 0
KSW1 121021Z 01003KT M05/M10 A3029 RMK A01 T10541099  RH  071%=      5-min Rain = 0
KSW1 121022Z 02004KT M05/M10 A3029 RMK A01 T10541099  RH  071%=      5-min Rain = 0
KSW1 121023Z 02005KT M06/M10 A3029 RMK A01 T10551099  RH  071%=      5-min Rain = 0
KSW1 121024Z 02005KT M06/M10 A3029 RMK A01 T10551099  RH  071%=      5-min Rain = 0
KSW1 121025Z 02005KT M06/M10 A3029 RMK A01 T10551099  RH  071%=      5-min Rain = 0
KSW1 121026Z 03005KT M06/M10 A3029 RMK A01 T10551099  RH  071%=      5-min Rain = 0
KSW1 121027Z 03006KT M06/M10 A3029 RMK A01 T10551099  RH  071%=      5-min Rain = 0
KSW1 121028Z 03006KT M06/M10 A3029 RMK A01 T10551099  RH  071%=      5-min Rain = 0
KSW1 121029Z 03005KT M05/M10 A3029 RMK A01 T10541099  RH  071%=      5-min Rain = 0
KSW1 121030Z 03005KT M06/M10 A3029 RMK A01 T10551100  RH  071%=      5-min Rain = 0
KSW1 121031Z 03005KT M06/M10 A3029 RMK A01 T10561100  RH  071%=      5-min Rain = 0
KSW1 121032Z 02004KT M06/M10 A3029 RMK A01 T10571100  RH  072%=      5-min Rain = 0
KSW1 121033Z 02004KT M06/M10 A3029 RMK A01 T10571100  RH  072%=      5-min Rain = 0
KSW1 121034Z 01003KT M06/M10 A3029 RMK A01 T10581101  RH  072%=      5-min Rain = 0
KSW1 121035Z 02003KT M06/M10 A3029 RMK A01 T10591102  RH  071%=      5-min Rain = 0
KSW1 121036Z 02003KT M06/M10 A3028 RMK A01 T10601103  RH  072%=      5-min Rain = 0
KSW1 121037Z 03003KT M06/M10 A3028 RMK A01 T10611104  RH  072%=      5-min Rain = 0
KSW1 121038Z 03003KT M06/M10 A3028 RMK A01 T10611103  RH  072%=      5-min Rain = 0
KSW1 121039Z 03002KT M06/M10 A3028 RMK A01 T10621103  RH  073%=      5-min Rain = 0
KSW1 121040Z 04002KT M06/M10 A3028 RMK A01 T10621102  RH  073%=      5-min Rain = 0
KSW1 121041Z 04002KT M06/M10 A3028 RMK A01 T10611102  RH  073%=      5-min Rain = 0
KSW1 121042Z 04002KT M06/M10 A3028 RMK A01 T10611102  RH  073%=      5-min Rain = 0
KSW1 121043Z 06002KT M06/M10 A3028 RMK A01 T10621102  RH  073%=      5-min Rain = 0
KSW1 121044Z 07002KT M06/M10 A3028 RMK A01 T10621102  RH  073%=      5-min Rain = 0
KSW1 121045Z 09001KT M06/M10 A3028 RMK A01 T10621103  RH  073%=      5-min Rain = 0
KSW1 121046Z 09002KT M06/M11 A3028 RMK A01 T10641106  RH  072%=      5-min Rain = 0
KSW1 121047Z 09002KT M07/M11 A3028 RMK A01 T10671108  RH  072%=      5-min Rain = 0
KSW1 121048Z 09002KT M07/M11 A3028 RMK A01 T10671106  RH  074%=      5-min Rain = 0
KSW1 121049Z 10001KT M07/M11 A3028 RMK A01 T10681105  RH  075%=      5-min Rain = 0
KSW1 121050Z 11001KT M07/M10 A3028 RMK A01 T10681104  RH  075%=      5-min Rain = 0
KSW1 121051Z 11000KT M07/M10 A3028 RMK A01 T10671103  RH  075%=      5-min Rain = 0
KSW1 121052Z 00000KT M07/M10 A3028 RMK A01 T10661102  RH  076%=      5-min Rain = 0
KSW1 121053Z 00000KT M07/M10 A3028 RMK A01 T10651101  RH  076%=      5-min Rain = 0
KSW1 121054Z 00000KT M06/M10 A3028 RMK A01 T10641101  RH  075%=      5-min Rain = 0
KSW1 121055Z 00000KT M07/M11 A3028 RMK A01 T10661105  RH  074%=      5-min Rain = 0
KSW1 121056Z 21000KT M07/M11 A3028 RMK A01 T10681107  RH  074%=      5-min Rain = 0
KSW1 121057Z 21000KT M07/M11 A3028 RMK A01 T10691107  RH  074%=      5-min Rain = 0
KSW1 121058Z 00000KT M07/M11 A3028 RMK A01 T10701107  RH  075%=      5-min Rain = 0
KSW1 121059Z 00000KT M07/M11 A3028 RMK A01 T10711107  RH  075%=      5-min Rain = 0
KSW1 121100Z 00000KT M07/M11 A3028 RMK A01 T10711106  RH  076%=      5-min Rain = 0
KSW1 121101Z 00000KT M07/M10 A3027 RMK A01 T10701104  RH  077%=      5-min Rain = 0
KSW1 121102Z 19000KT M07/M10 A3027 RMK A01 T10691102  RH  077%=      5-min Rain = 0
KSW1 121103Z 18000KT M07/M10 A3027 RMK A01 T10691103  RH  076%=      5-min Rain = 0
KSW1 121104Z 00000KT M07/M10 A3027 RMK A01 T10691104  RH  076%=      5-min Rain = 0
KSW1 121105Z 15000KT M07/M10 A3027 RMK A01 T10681104  RH  076%=      5-min Rain = 0
KSW1 121106Z 13000KT M07/M10 A3027 RMK A01 T10681104  RH  076%=      5-min Rain = 0
KSW1 121107Z 12001KT M07/M10 A3027 RMK A01 T10681104  RH  076%=      5-min Rain = 0
KSW1 121108Z 11002KT M07/M10 A3027 RMK A01 T10681103  RH  076%=      5-min Rain = 0
KSW1 121109Z 11002KT M07/M10 A3027 RMK A01 T10661102  RH  076%=      5-min Rain = 0
KSW1 121110Z 11002KT M07/M10 A3027 RMK A01 T10661102  RH  075%=      5-min Rain = 0
KSW1 121111Z 09002KT M07/M10 A3027 RMK A01 T10661103  RH  075%=      5-min Rain = 0
KSW1 121112Z 09002KT M07/M10 A3027 RMK A01 T10671104  RH  075%=      5-min Rain = 0
KSW1 121113Z 09002KT M07/M11 A3027 RMK A01 T10681106  RH  075%=      5-min Rain = 0
KSW1 121114Z 10002KT M07/M11 A3027 RMK A01 T10691106  RH  075%=      5-min Rain = 0
KSW1 121115Z 09001KT M07/M11 A3027 RMK A01 T10691105  RH  076%=      5-min Rain = 0
KSW1 121116Z 09000KT M07/M10 A3027 RMK A01 T10691104  RH  076%=      5-min Rain = 0
KSW1 121117Z 00000KT M07/M10 A3027 RMK A01 T10691103  RH  076%=      5-min Rain = 0
KSW1 121118Z 00000KT M07/M10 A3027 RMK A01 T10681102  RH  076%=      5-min Rain = 0
KSW1 121119Z 00000KT M07/M10 A3028 RMK A01 T10661101  RH  076%=      5-min Rain = 0
KSW1 121120Z 00000KT M07/M10 A3028 RMK A01 T10651102  RH  075%=      5-min Rain = 0
KSW1 121121Z 05000KT M07/M10 A3028 RMK A01 T10651103  RH  075%=      5-min Rain = 0
KSW1 121122Z 06002KT M07/M10 A3027 RMK A01 T10661103  RH  075%=      5-min Rain = 0
KSW1 121123Z 06003KT M07/M10 A3027 RMK A01 T10651101  RH  076%=      5-min Rain = 0
KSW1 121124Z 05004KT M06/M10 A3027 RMK A01 T10611097  RH  076%=      5-min Rain = 0
KSW1 121125Z 04004KT M06/M10 A3028 RMK A01 T10571096  RH  074%=      5-min Rain = 0
KSW1 121126Z 05004KT M06/M10 A3028 RMK A01 T10551098  RH  072%=      5-min Rain = 0
KSW1 121127Z 05004KT M06/M10 A3028 RMK A01 T10551099  RH  071%=      5-min Rain = 0
KSW1 121128Z 05005KT M06/M10 A3028 RMK A01 T10551100  RH  071%=      5-min Rain = 0
KSW1 121129Z 05005KT M06/M10 A3028 RMK A01 T10561101  RH  071%=      5-min Rain = 0
KSW1 121130Z 05005KT M06/M10 A3028 RMK A01 T10571101  RH  071%=      5-min Rain = 0
KSW1 121131Z 05005KT M06/M10 A3028 RMK A01 T10581102  RH  071%=      5-min Rain = 0
KSW1 121132Z 05006KT M06/M10 A3028 RMK A01 T10601103  RH  072%=      5-min Rain = 0
KSW1 121133Z 05006KT M06/M10 A3028 RMK A01 T10611104  RH  072%=      5-min Rain = 0
KSW1 121134Z 04006KT M06/M10 A3028 RMK A01 T10621104  RH  073%=      5-min Rain = 0
KSW1 121135Z 04006KT M06/M10 A3028 RMK A01 T10631103  RH  073%=      5-min Rain = 0
KSW1 121136Z 05006KT M06/M10 A3028 RMK A01 T10631103  RH  073%=      5-min Rain = 0
KSW1 121137Z 05006KT M06/M10 A3028 RMK A01 T10631103  RH  073%=      5-min Rain = 0
KSW1 121138Z 06006KT M06/M10 A3028 RMK A01 T10631103  RH  073%=      5-min Rain = 0
KSW1 121139Z 06006KT M06/M10 A3028 RMK A01 T10631103  RH  073%=      5-min Rain = 0
KSW1 121140Z 06006KT M07/M11 A3028 RMK A01 T10651105  RH  073%=      5-min Rain = 0
KSW1 121141Z 06006KT M07/M11 A3028 RMK A01 T10681107  RH  073%=      5-min Rain = 0
KSW1 121142Z 06006KT M07/M11 A3028 RMK A01 T10701108  RH  074%=      5-min Rain = 0
KSW1 121143Z 06006KT M07/M11 A3028 RMK A01 T10711109  RH  074%=      5-min Rain = 0
KSW1 121144Z 06004KT M07/M11 A3028 RMK A01 T10721109  RH  075%=      5-min Rain = 0
KSW1 121145Z 05003KT M07/M11 A3028 RMK A01 T10731109  RH  076%=      5-min Rain = 0
KSW1 121146Z 05003KT M07/M11 A3028 RMK A01 T10731108  RH  076%=      5-min Rain = 0
KSW1 121147Z 06002KT M07/M11 A3028 RMK A01 T10721107  RH  076%=      5-min Rain = 0
KSW1 121148Z 07002KT M07/M11 A3028 RMK A01 T10711106  RH  076%=      5-min Rain = 0
KSW1 121149Z 06003KT M07/M11 A3028 RMK A01 T10701105  RH  076%=      5-min Rain = 0
KSW1 121150Z 06004KT M07/M11 A3028 RMK A01 T10691105  RH  076%=      5-min Rain = 0
KSW1 121151Z 07005KT M07/M10 A3028 RMK A01 T10681104  RH  075%=      5-min Rain = 0
KSW1 121152Z 07006KT M07/M10 A3028 RMK A01 T10671104  RH  075%=      5-min Rain = 0
KSW1 121153Z 07006KT M07/M11 A3028 RMK A01 T10671106  RH  074%=      5-min Rain = 0
KSW1 121154Z 06006KT M07/M11 A3028 RMK A01 T10691107  RH  074%=      5-min Rain = 0
KSW1 121155Z 06006KT M07/M11 A3028 RMK A01 T10701107  RH  075%=      5-min Rain = 0
KSW1 121156Z 06006KT M07/M11 A3028 RMK A01 T10701106  RH  075%=      5-min Rain = 0
KSW1 121157Z 06006KT M07/M11 A3027 RMK A01 T10701106  RH  076%=      5-min Rain = 0
KSW1 121158Z 06006KT M07/M11 A3027 RMK A01 T10701105  RH  076%=      5-min Rain = 0
KSW1 121159Z 06005KT M07/M11 A3028 RMK A01 T10691105  RH  076%=      5-min Rain = 0
KSW1 121200Z 05005KT M07/M11 A3028 RMK A01 T10691105  RH  076%=      5-min Rain = 0
KSW1 121201Z 05005KT M07/M11 A3028 RMK A01 T10691105  RH  076%=      5-min Rain = 0
KSW1 121202Z 04005KT M07/M11 A3028 RMK A01 T10691105  RH  075%=      5-min Rain = 0
KSW1 121203Z 04006KT M07/M10 A3028 RMK A01 T10681104  RH  075%=      5-min Rain = 0
KSW1 121204Z 04007KT M07/M10 A3028 RMK A01 T10661104  RH  075%=      5-min Rain = 0
KSW1 121205Z 04007KT M07/M10 A3028 RMK A01 T10661104  RH  074%=      5-min Rain = 0
KSW1 121206Z 04007KT M07/M11 A3028 RMK A01 T10661105  RH  074%=      5-min Rain = 0
KSW1 121207Z 05007KT M07/M11 A3028 RMK A01 T10651105  RH  073%=      5-min Rain = 0
KSW1 121208Z 05006KT M07/M11 A3028 RMK A01 T10651105  RH  073%=      5-min Rain = 0
KSW1 121209Z 05006KT M07/M11 A3028 RMK A01 T10651105  RH  073%=      5-min Rain = 0
KSW1 121210Z 04005KT M07/M11 A3028 RMK A01 T10651106  RH  072%=      5-min Rain = 0
KSW1 121211Z 04005KT M07/M11 A3028 RMK A01 T10651107  RH  072%=      5-min Rain = 0
KSW1 121212Z 04005KT M07/M11 A3028 RMK A01 T10651107  RH  072%=      5-min Rain = 0
KSW1 121213Z 04005KT M07/M11 A3028 RMK A01 T10651107  RH  072%=      5-min Rain = 0
KSW1 121214Z 04005KT M07/M11 A3028 RMK A01 T10651107  RH  072%=      5-min Rain = 0
KSW1 121215Z 04005KT M07/M11 A3028 RMK A01 T10651108  RH  072%=      5-min Rain = 0
KSW1 121216Z 05005KT M07/M11 A3028 RMK A01 T10661108  RH  072%=      5-min Rain = 0
KSW1 121217Z 05005KT M07/M11 A3028 RMK A01 T10661109  RH  072%=      5-min Rain = 0
KSW1 121218Z 05005KT M07/M11 A3028 RMK A01 T10661108  RH  072%=      5-min Rain = 0
KSW1 121219Z 05005KT M07/M11 A3028 RMK A01 T10651108  RH  071%=      5-min Rain = 0
KSW1 121220Z 05005KT M07/M11 A3028 RMK A01 T10651108  RH  071%=      5-min Rain = 0
KSW1 121221Z 05004KT M06/M11 A3028 RMK A01 T10641108  RH  071%=      5-min Rain = 0
KSW1 121222Z 05004KT M06/M11 A3028 RMK A01 T10641109  RH  071%=      5-min Rain = 0
KSW1 121223Z 05005KT M06/M11 A3028 RMK A01 T10641109  RH  071%=      5-min Rain = 0
KSW1 121224Z 04005KT M06/M11 A3028 RMK A01 T10641109  RH  071%=      5-min Rain = 0
KSW1 121225Z 04005KT M07/M11 A3028 RMK A01 T10651109  RH  071%=      5-min Rain = 0
KSW1 121226Z 05004KT M07/M11 A3028 RMK A01 T10651109  RH  071%=      5-min Rain = 0
KSW1 121227Z 05004KT M07/M11 A3029 RMK A01 T10651109  RH  071%=      5-min Rain = 0
KSW1 121228Z 06004KT M06/M11 A3029 RMK A01 T10641109  RH  071%=      5-min Rain = 0
KSW1 121229Z 06004KT M06/M11 A3029 RMK A01 T10641109  RH  071%=      5-min Rain = 0
KSW1 121230Z 06004KT M07/M11 A3029 RMK A01 T10651110  RH  070%=      5-min Rain = 0
KSW1 121231Z 06004KT M07/M11 A3029 RMK A01 T10671112  RH  071%=      5-min Rain = 0
KSW1 121232Z 06005KT M07/M11 A3028 RMK A01 T10701114  RH  071%=      5-min Rain = 0
KSW1 121233Z 05005KT M07/M12 A3028 RMK A01 T10731115  RH  072%=      5-min Rain = 0
KSW1 121234Z 05004KT M07/M11 A3029 RMK A01 T10731113  RH  074%=      5-min Rain = 0
KSW1 121235Z 06004KT M07/M11 A3029 RMK A01 T10731112  RH  074%=      5-min Rain = 0
KSW1 121236Z 06004KT M07/M11 A3029 RMK A01 T10731111  RH  074%=      5-min Rain = 0
KSW1 121237Z 06003KT M07/M11 A3029 RMK A01 T10731111  RH  074%=      5-min Rain = 0
KSW1 121238Z 06003KT M07/M11 A3029 RMK A01 T10731111  RH  074%=      5-min Rain = 0
KSW1 121239Z 07003KT M07/M11 A3029 RMK A01 T10721110  RH  074%=      5-min Rain = 0
KSW1 121240Z 07003KT M07/M11 A3029 RMK A01 T10711109  RH  074%=      5-min Rain = 0
KSW1 121241Z 07003KT M07/M11 A3029 RMK A01 T10701109  RH  074%=      5-min Rain = 0
KSW1 121242Z 06003KT M07/M11 A3029 RMK A01 T10681108  RH  073%=      5-min Rain = 0
KSW1 121243Z 06003KT M07/M11 A3029 RMK A01 T10671108  RH  073%=      5-min Rain = 0
KSW1 121244Z 05003KT M07/M11 A3029 RMK A01 T10661108  RH  072%=      5-min Rain = 0
KSW1 121245Z 05003KT M07/M11 A3029 RMK A01 T10651108  RH  071%=      5-min Rain = 0
KSW1 121246Z 05004KT M06/M11 A3029 RMK A01 T10641108  RH  071%=      5-min Rain = 0
KSW1 121247Z 05004KT M06/M11 A3029 RMK A01 T10631108  RH  071%=      5-min Rain = 0
KSW1 121248Z 05004KT M06/M11 A3029 RMK A01 T10631109  RH  070%=      5-min Rain = 0
KSW1 121249Z 05004KT M06/M11 A3029 RMK A01 T10621109  RH  070%=      5-min Rain = 0
KSW1 121250Z 04004KT M06/M11 A3029 RMK A01 T10621109  RH  069%=      5-min Rain = 0
KSW1 121251Z 04004KT M06/M11 A3029 RMK A01 T10621109  RH  069%=      5-min Rain = 0
KSW1 121252Z 04004KT M06/M11 A3029 RMK A01 T10621109  RH  069%=      5-min Rain = 0
KSW1 121253Z 04004KT M06/M11 A3029 RMK A01 T10621110  RH  069%=      5-min Rain = 0
KSW1 121254Z 04004KT M06/M11 A3029 RMK A01 T10631111  RH  069%=      5-min Rain = 0
KSW1 121255Z 04004KT M06/M11 A3029 RMK A01 T10631111  RH  069%=      5-min Rain = 0
KSW1 121256Z 04004KT M06/M11 A3029 RMK A01 T10641111  RH  069%=      5-min Rain = 0
KSW1 121257Z 04004KT M06/M11 A3029 RMK A01 T10641111  RH  069%=      5-min Rain = 0
KSW1 121258Z 04004KT M06/M11 A3029 RMK A01 T10641111  RH  069%=      5-min Rain = 0
KSW1 121259Z 04004KT M07/M11 A3029 RMK A01 T10651111  RH  070%=      5-min Rain = 0
KSW1 121300Z 04004KT M06/M11 A3029 RMK A01 T10641111  RH  070%=      5-min Rain = 0
KSW1 121301Z 05004KT M07/M11 A3029 RMK A01 T10651111  RH  070%=      5-min Rain = 0
KSW1 121302Z 05004KT M07/M11 A3029 RMK A01 T10651111  RH  070%=      5-min Rain = 0
KSW1 121303Z 05004KT M07/M11 A3029 RMK A01 T10651111  RH  070%=      5-min Rain = 0
KSW1 121304Z 05005KT M07/M11 A3029 RMK A01 T10651111  RH  070%=      5-min Rain = 0
KSW1 121305Z 05005KT M07/M11 A3029 RMK A01 T10661112  RH  070%=      5-min Rain = 0
KSW1 121306Z 05005KT M07/M11 A3029 RMK A01 T10671113  RH  070%=      5-min Rain = 0
KSW1 121307Z 05005KT M07/M11 A3029 RMK A01 T10681113  RH  070%=      5-min Rain = 0
KSW1 121308Z 05005KT M07/M11 A3029 RMK A01 T10691113  RH  071%=      5-min Rain = 0
KSW1 121309Z 05005KT M07/M11 A3029 RMK A01 T10691113  RH  071%=      5-min Rain = 0
KSW1 121310Z 05005KT M07/M11 A3029 RMK A01 T10701113  RH  071%=      5-min Rain = 0
KSW1 121311Z 05005KT M07/M11 A3029 RMK A01 T10701113  RH  071%=      5-min Rain = 0
KSW1 121312Z 05005KT M07/M11 A3029 RMK A01 T10701114  RH  071%=      5-min Rain = 0
KSW1 121313Z 05005KT M07/M11 A3029 RMK A01 T10691113  RH  071%=      5-min Rain = 0
KSW1 121314Z 04005KT M07/M11 A3029 RMK A01 T10691113  RH  071%=      5-min Rain = 0
KSW1 121315Z 04005KT M07/M11 A3029 RMK A01 T10691114  RH  070%=      5-min Rain = 0
KSW1 121316Z 04005KT M07/M11 A3029 RMK A01 T10691114  RH  070%=      5-min Rain = 0
KSW1 121317Z 04004KT M07/M11 A3029 RMK A01 T10681113  RH  070%=      5-min Rain = 0
KSW1 121318Z 04005KT M07/M11 A3029 RMK A01 T10681113  RH  070%=      5-min Rain = 0
KSW1 121319Z 04005KT M07/M11 A3029 RMK A01 T10681113  RH  070%=      5-min Rain = 0
KSW1 121320Z 05005KT M07/M11 A3029 RMK A01 T10671113  RH  070%=      5-min Rain = 0
KSW1 121321Z 05004KT M07/M11 A303 RMK A01 T10671113  RH  070%=      5-min Rain = 0
KSW1 121322Z 05004KT M07/M11 A303 RMK A01 T10661113  RH  070%=      5-min Rain = 0
KSW1 121323Z 05003KT M07/M11 A303 RMK A01 T10661113  RH  069%=      5-min Rain = 0
KSW1 121324Z 05003KT M07/M11 A303 RMK A01 T10661113  RH  069%=      5-min Rain = 0
KSW1 121325Z 05003KT M07/M11 A303 RMK A01 T10661113  RH  069%=      5-min Rain = 0
KSW1 121326Z 06003KT M07/M11 A303 RMK A01 T10661113  RH  069%=      5-min Rain = 0
KSW1 121327Z 06003KT M07/M11 A303 RMK A01 T10661113  RH  069%=      5-min Rain = 0
KSW1 121328Z 07003KT M07/M11 A303 RMK A01 T10681114  RH  069%=      5-min Rain = 0
KSW1 121329Z 07003KT M07/M12 A303 RMK A01 T10701117  RH  069%=      5-min Rain = 0
KSW1 121330Z 07003KT M07/M12 A303 RMK A01 T10731118  RH  070%=      5-min Rain = 0
KSW1 121331Z 08003KT M07/M12 A303 RMK A01 T10741117  RH  071%=      5-min Rain = 0
KSW1 121332Z 09002KT M07/M12 A303 RMK A01 T10741116  RH  072%=      5-min Rain = 0
KSW1 121333Z 09002KT M07/M12 A303 RMK A01 T10741115  RH  072%=      5-min Rain = 0
KSW1 121334Z 09002KT M07/M11 A303 RMK A01 T10721114  RH  072%=      5-min Rain = 0
KSW1 121335Z 09002KT M07/M11 A303 RMK A01 T10711113  RH  072%=      5-min Rain = 0
KSW1 121336Z 08002KT M07/M11 A303 RMK A01 T10711113  RH  072%=      5-min Rain = 0
KSW1 121337Z 08003KT M07/M11 A303 RMK A01 T10711114  RH  071%=      5-min Rain = 0
KSW1 121338Z 08003KT M07/M11 A303 RMK A01 T10711114  RH  071%=      5-min Rain = 0
KSW1 121339Z 07004KT M07/M12 A303 RMK A01 T10721116  RH  071%=      5-min Rain = 0
KSW1 121340Z 07004KT M07/M12 A303 RMK A01 T10731116  RH  071%=      5-min Rain = 0
KSW1 121341Z 06004KT M08/M12 A303 RMK A01 T10751117  RH  072%=      5-min Rain = 0
KSW1 121342Z 06004KT M08/M12 A303 RMK A01 T10761117  RH  072%=      5-min Rain = 0
KSW1 121343Z 06004KT M08/M12 A303 RMK A01 T10761116  RH  073%=      5-min Rain = 0
KSW1 121344Z 06004KT M08/M12 A303 RMK A01 T10761116  RH  073%=      5-min Rain = 0
KSW1 121345Z 06004KT M08/M12 A303 RMK A01 T10761116  RH  073%=      5-min Rain = 0
KSW1 121346Z 05004KT M08/M12 A303 RMK A01 T10751115  RH  073%=      5-min Rain = 0
KSW1 121347Z 05004KT M08/M12 A303 RMK A01 T10751115  RH  073%=      5-min Rain = 0
KSW1 121348Z 06004KT M07/M12 A303 RMK A01 T10741115  RH  072%=      5-min Rain = 0
KSW1 121349Z 06004KT M07/M11 A303 RMK A01 T10731114  RH  072%=      5-min Rain = 0
KSW1 121350Z 06004KT M07/M11 A303 RMK A01 T10711114  RH  072%=      5-min Rain = 0
KSW1 121351Z 06004KT M07/M11 A303 RMK A01 T10701114  RH  071%=      5-min Rain = 0
KSW1 121352Z 06004KT M07/M11 A3029 RMK A01 T10691114  RH  070%=      5-min Rain = 0
KSW1 121353Z 07004KT M07/M11 A3029 RMK A01 T10691114  RH  070%=      5-min Rain = 0
KSW1 121354Z 07004KT M07/M11 A3029 RMK A01 T10681114  RH  070%=      5-min Rain = 0
KSW1 121355Z 06004KT M07/M12 A3029 RMK A01 T10691115  RH  070%=      5-min Rain = 0
KSW1 121356Z 06004KT M07/M12 A303 RMK A01 T10701115  RH  070%=      5-min Rain = 0
KSW1 121357Z 06004KT M07/M12 A303 RMK A01 T10701116  RH  070%=      5-min Rain = 0
KSW1 121358Z 05003KT M07/M12 A303 RMK A01 T10701115  RH  070%=      5-min Rain = 0
KSW1 121359Z 06003KT M07/M12 A303 RMK A01 T10701115  RH  070%=      5-min Rain = 0
KSW1 121400Z 06003KT M07/M12 A303 RMK A01 T10701115  RH  070%=      5-min Rain = 0
KSW1 121401Z 06003KT M07/M12 A303 RMK A01 T10701115  RH  070%=      5-min Rain = 0
KSW1 121402Z 06004KT M07/M12 A303 RMK A01 T10711115  RH  070%=      5-min Rain = 0
KSW1 121403Z 06004KT M07/M11 A303 RMK A01 T10701114  RH  071%=      5-min Rain = 0
KSW1 121404Z 05004KT M07/M11 A303 RMK A01 T10701113  RH  071%=      5-min Rain = 0
KSW1 121405Z 05004KT M07/M11 A303 RMK A01 T10691112  RH  072%=      5-min Rain = 0
KSW1 121406Z 05004KT M07/M11 A303 RMK A01 T10681111  RH  071%=      5-min Rain = 0
KSW1 121407Z 05004KT M07/M11 A303 RMK A01 T10661110  RH  071%=      5-min Rain = 0
KSW1 121408Z 05004KT M06/M11 A303 RMK A01 T10631110  RH  070%=      5-min Rain = 0
KSW1 121409Z 06003KT M06/M11 A303 RMK A01 T10611110  RH  068%=      5-min Rain = 0
KSW1 121410Z 06003KT M06/M11 A303 RMK A01 T10591110  RH  067%=      5-min Rain = 0
KSW1 121411Z 06003KT M06/M11 A303 RMK A01 T10571110  RH  066%=      5-min Rain = 0
KSW1 121412Z 06003KT M06/M11 A303 RMK A01 T10551111  RH  065%=      5-min Rain = 0
KSW1 121413Z 06003KT M05/M11 A303 RMK A01 T10541110  RH  065%=      5-min Rain = 0
KSW1 121414Z 06003KT M05/M11 A303 RMK A01 T10521108  RH  065%=      5-min Rain = 0
KSW1 121415Z 06004KT M05/M11 A303 RMK A01 T10511108  RH  065%=      5-min Rain = 0
KSW1 121416Z 05004KT M05/M11 A303 RMK A01 T10501108  RH  064%=      5-min Rain = 0
KSW1 121417Z 05004KT M05/M11 A303 RMK A01 T10501108  RH  064%=      5-min Rain = 0
KSW1 121418Z 05003KT M05/M11 A3031 RMK A01 T10491108  RH  063%=      5-min Rain = 0
KSW1 121419Z 05003KT M05/M11 A3031 RMK A01 T10491108  RH  063%=      5-min Rain = 0
KSW1 121420Z 05003KT M05/M11 A3031 RMK A01 T10481107  RH  063%=      5-min Rain = 0
KSW1 121421Z 04002KT M05/M11 A3031 RMK A01 T10471108  RH  062%=      5-min Rain = 0
KSW1 121422Z 04002KT M05/M11 A3031 RMK A01 T10451107  RH  062%=      5-min Rain = 0
KSW1 121423Z 03001KT M04/M11 A3031 RMK A01 T10441107  RH  062%=      5-min Rain = 0
KSW1 121424Z 03001KT M04/M11 A3031 RMK A01 T10431106  RH  061%=      5-min Rain = 0
KSW1 121425Z 04002KT M05/M11 A3031 RMK A01 T10471110  RH  061%=      5-min Rain = 0
KSW1 121426Z 06002KT M05/M11 A3031 RMK A01 T10511113  RH  062%=      5-min Rain = 0
KSW1 121427Z 05001KT M05/M11 A3032 RMK A01 T10541112  RH  064%=      5-min Rain = 0
KSW1 121428Z 00000KT M06/M11 A3032 RMK A01 T10551110  RH  065%=      5-min Rain = 0
KSW1 121429Z 00000KT M05/M11 A3032 RMK A01 T10541109  RH  065%=      5-min Rain = 0
KSW1 121430Z 13000KT M05/M11 A3032 RMK A01 T10531108  RH  066%=      5-min Rain = 0
KSW1 121431Z 00000KT M05/M11 A3032 RMK A01 T10521107  RH  065%=      5-min Rain = 0
KSW1 121432Z 30000KT M05/M11 A3032 RMK A01 T10521107  RH  065%=      5-min Rain = 0
KSW1 121433Z 36000KT M05/M11 A3032 RMK A01 T10521107  RH  065%=      5-min Rain = 0
KSW1 121434Z 00000KT M05/M11 A3032 RMK A01 T10511107  RH  065%=      5-min Rain = 0
KSW1 121435Z 00000KT M05/M11 A3032 RMK A01 T10501106  RH  065%=      5-min Rain = 0
KSW1 121436Z 00000KT M05/M11 A3032 RMK A01 T10491107  RH  064%=      5-min Rain = 0
KSW1 121437Z 00000KT M05/M11 A3032 RMK A01 T10481106  RH  064%=      5-min Rain = 0
KSW1 121438Z 26000KT M05/M11 A3032 RMK A01 T10461105  RH  064%=      5-min Rain = 0
KSW1 121439Z 25001KT M05/M11 A3032 RMK A01 T10461106  RH  063%=      5-min Rain = 0
KSW1 121440Z 26002KT M05/M11 A3032 RMK A01 T10471107  RH  063%=      5-min Rain = 0
KSW1 121441Z 27002KT M05/M11 A3032 RMK A01 T10491109  RH  063%=      5-min Rain = 0
KSW1 121442Z 27001KT M05/M11 A3032 RMK A01 T10501108  RH  064%=      5-min Rain = 0
KSW1 121443Z 27000KT M05/M11 A3032 RMK A01 T10501107  RH  064%=      5-min Rain = 0
KSW1 121444Z 00000KT M05/M11 A3032 RMK A01 T10501106  RH  064%=      5-min Rain = 0
KSW1 121445Z 11000KT M05/M10 A3032 RMK A01 T10471104  RH  064%=      5-min Rain = 0
KSW1 121446Z 16000KT M04/M10 A3032 RMK A01 T10441103  RH  063%=      5-min Rain = 0
KSW1 121447Z 16000KT M04/M10 A3032 RMK A01 T10391103  RH  061%=      5-min Rain = 0
KSW1 121448Z 00000KT M04/M11 A3032 RMK A01 T10361105  RH  059%=      5-min Rain = 0
KSW1 121449Z 00000KT M04/M11 A3032 RMK A01 T10351106  RH  058%=      5-min Rain = 0
KSW1 121450Z 26000KT M03/M11 A3032 RMK A01 T10341106  RH  058%=      5-min Rain = 0
KSW1 121451Z 30001KT M03/M11 A3032 RMK A01 T10341107  RH  057%=      5-min Rain = 0
KSW1 121452Z 34000KT M03/M11 A3032 RMK A01 T10341106  RH  057%=      5-min Rain = 0
KSW1 121453Z 14000KT M03/M11 A3032 RMK A01 T10331105  RH  058%=      5-min Rain = 0
KSW1 121454Z 13001KT M03/M11 A3032 RMK A01 T10331105  RH  057%=      5-min Rain = 0
KSW1 121455Z 13002KT M03/M11 A3032 RMK A01 T10331106  RH  057%=      5-min Rain = 0
KSW1 121456Z 16001KT M03/M11 A3032 RMK A01 T10331105  RH  057%=      5-min Rain = 0
KSW1 121457Z 19000KT M03/M11 A3032 RMK A01 T10331105  RH  058%=      5-min Rain = 0
KSW1 121458Z 18000KT M03/M11 A3032 RMK A01 T10331105  RH  058%=      5-min Rain = 0
KSW1 121459Z 00000KT M03/M11 A3032 RMK A01 T10331106  RH  057%=      5-min Rain = 0
KSW1 121500Z 23000KT M03/M11 A3032 RMK A01 T10331107  RH  057%=      5-min Rain = 0
KSW1 121501Z 23001KT M03/M11 A3033 RMK A01 T10331106  RH  057%=      5-min Rain = 0
KSW1 121502Z 22001KT M03/M11 A3033 RMK A01 T10331107  RH  057%=      5-min Rain = 0
KSW1 121503Z 19000KT M03/M11 A3033 RMK A01 T10331107  RH  057%=      5-min Rain = 0
KSW1 121504Z 18001KT M03/M11 A3033 RMK A01 T10341108  RH  056%=      5-min Rain = 0
KSW1 121505Z 18002KT M03/M11 A3033 RMK A01 T10341107  RH  057%=      5-min Rain = 0
KSW1 121506Z 19002KT M03/M11 A3033 RMK A01 T10331107  RH  057%=      5-min Rain = 0
KSW1 121507Z 21001KT M03/M11 A3033 RMK A01 T10331107  RH  056%=      5-min Rain = 0
KSW1 121508Z 19001KT M03/M11 A3033 RMK A01 T10321107  RH  056%=      5-min Rain = 0
KSW1 121509Z 20000KT M03/M11 A3033 RMK A01 T10311106  RH  056%=      5-min Rain = 0
KSW1 121510Z 18000KT M03/M11 A3033 RMK A01 T10301105  RH  056%=      5-min Rain = 0
KSW1 121511Z 16000KT M03/M11 A3033 RMK A01 T10291106  RH  055%=      5-min Rain = 0
KSW1 121512Z 08001KT M03/M11 A3033 RMK A01 T10281106  RH  055%=      5-min Rain = 0
KSW1 121513Z 09001KT M03/M11 A3033 RMK A01 T10271107  RH  054%=      5-min Rain = 0
KSW1 121514Z 13000KT M03/M11 A3033 RMK A01 T10251107  RH  053%=      5-min Rain = 0
KSW1 121515Z 14001KT M02/M11 A3033 RMK A01 T10231107  RH  053%=      5-min Rain = 0
KSW1 121516Z 15001KT M02/M11 A3033 RMK A01 T10221107  RH  052%=      5-min Rain = 0
KSW1 121517Z 14002KT M02/M11 A3033 RMK A01 T10191106  RH  051%=      5-min Rain = 0
KSW1 121518Z 15002KT M02/M11 A3033 RMK A01 T10171108  RH  050%=      5-min Rain = 0
KSW1 121519Z 13001KT M02/M11 A3033 RMK A01 T10161110  RH  049%=      5-min Rain = 0
KSW1 121520Z 11002KT M02/M11 A3033 RMK A01 T10151111  RH  048%=      5-min Rain = 0
KSW1 121521Z 11002KT M01/M11 A3033 RMK A01 T10141112  RH  048%=      5-min Rain = 0
KSW1 121522Z 11003KT M01/M11 A3033 RMK A01 T10131112  RH  047%=      5-min Rain = 0
KSW1 121523Z 11003KT M01/M11 A3033 RMK A01 T10131113  RH  047%=      5-min Rain = 0
KSW1 121524Z 10003KT M01/M11 A3033 RMK A01 T10131113  RH  046%=      5-min Rain = 0
KSW1 121525Z 08003KT M01/M11 A3033 RMK A01 T10121113  RH  046%=      5-min Rain = 0
KSW1 121526Z 09003KT M01/M12 A3033 RMK A01 T10131115  RH  046%=      5-min Rain = 0
KSW1 121527Z 07001KT M01/M12 A3033 RMK A01 T10131115  RH  046%=      5-min Rain = 0
KSW1 121528Z 09000KT M01/M11 A3033 RMK A01 T10121114  RH  046%=      5-min Rain = 0
KSW1 121529Z 08000KT M01/M11 A3033 RMK A01 T10111114  RH  045%=      5-min Rain = 0
KSW1 121530Z 08003KT M01/M11 A3033 RMK A01 T10111113  RH  046%=      5-min Rain = 0
KSW1 121531Z 07003KT M01/M11 A3033 RMK A01 T10091112  RH  045%=      5-min Rain = 0
KSW1 121532Z 08004KT M01/M11 A3033 RMK A01 T10081113  RH  045%=      5-min Rain = 0
KSW1 121533Z 08004KT M01/M11 A3033 RMK A01 T10081114  RH  045%=      5-min Rain = 0
KSW1 121534Z 08002KT M01/M11 A3033 RMK A01 T10081114  RH  045%=      5-min Rain = 0
KSW1 121535Z 07004KT M01/M11 A3033 RMK A01 T10081113  RH  045%=      5-min Rain = 0
KSW1 121536Z 06003KT M01/M11 A3033 RMK A01 T10051113  RH  044%=      5-min Rain = 0
KSW1 121537Z 07002KT M01/M12 A3033 RMK A01 T10051115  RH  043%=      5-min Rain = 0
KSW1 121538Z 06003KT M01/M12 A3033 RMK A01 T10061115  RH  043%=      5-min Rain = 0
KSW1 121539Z 08003KT M01/M12 A3032 RMK A01 T10061115  RH  043%=      5-min Rain = 0
KSW1 121540Z 10002KT M01/M11 A3032 RMK A01 T10051113  RH  044%=      5-min Rain = 0
KSW1 121541Z 14001KT M00/M11 A3032 RMK A01 T10041114  RH  043%=      5-min Rain = 0
KSW1 121542Z 07003KT M00/M11 A3032 RMK A01 T10031114  RH  043%=      5-min Rain = 0
KSW1 121543Z 07002KT M00/M11 A3032 RMK A01 T10011114  RH  042%=      5-min Rain = 0
KSW1 121544Z 09003KT 00/12 A3032 RMK A01 T00-00-116  RH  041%=      5-min Rain = 0
KSW1 121545Z 10005KT 00/11 A3032 RMK A01 T00000-114  RH  042%=      5-min Rain = 0
KSW1 121546Z 10004KT 00/M11 A3032 RMK A01 T00021114  RH  042%=      5-min Rain = 0
KSW1 121547Z 11003KT 00/M12 A3032 RMK A01 T00011115  RH  041%=      5-min Rain = 0
KSW1 121548Z 10004KT 00/M12 A3032 RMK A01 T00021115  RH  041%=      5-min Rain = 0
KSW1 121549Z 10004KT 00/M12 A3032 RMK A01 T00021116  RH  041%=      5-min Rain = 0
KSW1 121550Z 09004KT 00/M12 A3032 RMK A01 T00011116  RH  041%=      5-min Rain = 0
KSW1 121551Z 08004KT 00/M12 A3032 RMK A01 T00031116  RH  040%=      5-min Rain = 0
KSW1 121552Z 07004KT 00/M12 A3032 RMK A01 T00031117  RH  040%=      5-min Rain = 0
KSW1 121553Z 06004KT 00/M12 A3032 RMK A01 T00031116  RH  040%=      5-min Rain = 0
KSW1 121554Z 05003KT 00/M12 A3032 RMK A01 T00041115  RH  040%=      5-min Rain = 0
KSW1 121555Z 04003KT 00/M12 A3032 RMK A01 T00041115  RH  040%=      5-min Rain = 0
KSW1 121556Z 05004KT 01/M11 A3032 RMK A01 T00051113  RH  041%=      5-min Rain = 0
KSW1 121557Z 06004KT 01/M11 A3032 RMK A01 T00071111  RH  041%=      5-min Rain = 0
KSW1 121558Z 07004KT 01/M11 A3032 RMK A01 T00071111  RH  041%=      5-min Rain = 0
KSW1 121559Z 10003KT 01/M11 A3032 RMK A01 T00071112  RH  041%=      5-min Rain = 0
KSW1 121600Z 10003KT 01/M11 A3032 RMK A01 T00081110  RH  041%=      5-min Rain = 0
KSW1 121601Z 10004KT 01/M11 A3032 RMK A01 T00111109  RH  040%=      5-min Rain = 0
KSW1 121602Z 09004KT 01/M11 A3032 RMK A01 T00131109  RH  040%=      5-min Rain = 0
KSW1 121603Z 09003KT 01/M11 A3032 RMK A01 T00141110  RH  039%=      5-min Rain = 0
KSW1 121604Z 11002KT 01/M11 A3032 RMK A01 T00141111  RH  039%=      5-min Rain = 0
KSW1 121605Z 10003KT 01/M11 A3032 RMK A01 T00141111  RH  039%=      5-min Rain = 0
KSW1 121606Z 12003KT 01/M11 A3032 RMK A01 T00141110  RH  039%=      5-min Rain = 0
KSW1 121607Z 09002KT 02/M11 A3032 RMK A01 T00161108  RH  039%=      5-min Rain = 0
KSW1 121608Z 09003KT 02/M11 A3032 RMK A01 T00181107  RH  039%=      5-min Rain = 0
KSW1 121609Z 09003KT 02/M11 A3032 RMK A01 T00181109  RH  038%=      5-min Rain = 0
KSW1 121610Z 11003KT 02/M11 A3031 RMK A01 T00181108  RH  039%=      5-min Rain = 0
KSW1 121611Z 10003KT 02/M11 A3031 RMK A01 T00201106  RH  039%=      5-min Rain = 0
KSW1 121612Z 09005KT 02/M11 A3031 RMK A01 T00211108  RH  038%=      5-min Rain = 0
KSW1 121613Z 10004KT 02/M11 A3031 RMK A01 T00211112  RH  037%=      5-min Rain = 0
KSW1 121614Z 08003KT 02/M11 A3031 RMK A01 T00181114  RH  037%=      5-min Rain = 0
KSW1 121615Z 09005KT 02/M11 A3031 RMK A01 T00171113  RH  037%=      5-min Rain = 0
KSW1 121616Z 10003KT 02/M11 A3031 RMK A01 T00181113  RH  037%=      5-min Rain = 0
KSW1 121617Z 09003KT 02/M11 A3032 RMK A01 T00181112  RH  038%=      5-min Rain = 0
KSW1 121618Z 12004KT 02/M11 A3032 RMK A01 T00201111  RH  037%=      5-min Rain = 0
KSW1 121619Z 12003KT 02/M11 A3032 RMK A01 T00221110  RH  037%=      5-min Rain = 0
KSW1 121620Z 08003KT 02/M11 A3032 RMK A01 T00241111  RH  036%=      5-min Rain = 0
KSW1 121621Z 10005KT 02/M11 A3032 RMK A01 T00241113  RH  036%=      5-min Rain = 0
KSW1 121622Z 09004KT 02/M12 A3032 RMK A01 T00221115  RH  036%=      5-min Rain = 0
KSW1 121623Z 11003KT 02/M11 A3032 RMK A01 T00221113  RH  036%=      5-min Rain = 0
KSW1 121624Z 10004KT 02/M11 A3032 RMK A01 T00231113  RH  036%=      5-min Rain = 0
KSW1 121625Z 10002KT 02/M11 A3031 RMK A01 T00231113  RH  036%=      5-min Rain = 0
KSW1 121626Z 08004KT 03/M11 A3031 RMK A01 T00251110  RH  036%=      5-min Rain = 0
KSW1 121627Z 09005KT 03/M11 A3031 RMK A01 T00281110  RH  036%=      5-min Rain = 0
KSW1 121628Z 10005KT 03/M11 A3031 RMK A01 T00291111  RH  035%=      5-min Rain = 0
KSW1 121629Z 10004KT 03/M11 A3031 RMK A01 T00291112  RH  035%=      5-min Rain = 0
KSW1 121630Z 10003KT 03/M11 A3031 RMK A01 T00291113  RH  034%=      5-min Rain = 0
KSW1 121631Z 10004KT 03/M11 A3031 RMK A01 T00291112  RH  035%=      5-min Rain = 0
KSW1 121632Z 11004KT 03/M11 A3031 RMK A01 T00311110  RH  035%=      5-min Rain = 0
KSW1 121633Z 09006KT 03/M11 A3031 RMK A01 T00331111  RH  034%=      5-min Rain = 0
KSW1 121634Z 12006KT 03/M11 A3031 RMK A01 T00331113  RH  033%=      5-min Rain = 0
KSW1 121635Z 12003KT 03/M12 A3031 RMK A01 T00321115  RH  033%=      5-min Rain = 0
KSW1 121636Z 11005KT 03/M11 A3031 RMK A01 T00321113  RH  034%=      5-min Rain = 0
KSW1 121637Z 10007KT 03/M11 A3031 RMK A01 T00341112  RH  033%=      5-min Rain = 0
KSW1 121638Z 09005KT 03/M11 A3031 RMK A01 T00331114  RH  033%=      5-min Rain = 0
KSW1 121639Z 13005KT 03/M12 A3031 RMK A01 T00321115  RH  033%=      5-min Rain = 0
KSW1 121640Z 13005KT 03/M11 A3031 RMK A01 T00341112  RH  033%=      5-min Rain = 0
KSW1 121641Z 12005KT 04/M11 A3031 RMK A01 T00361113  RH  033%=      5-min Rain = 0
KSW1 121642Z 13004KT 04/M12 A3031 RMK A01 T00351115  RH  032%=      5-min Rain = 0
KSW1 121643Z 10005KT 04/M12 A3031 RMK A01 T00351116  RH  032%=      5-min Rain = 0
KSW1 121644Z 07004KT 04/M11 A3031 RMK A01 T00361114  RH  033%=      5-min Rain = 0
KSW1 121645Z 07004KT 04/M11 A3031 RMK A01 T00371113  RH  032%=      5-min Rain = 0
KSW1 121646Z 10006KT 04/M11 A3031 RMK A01 T00371114  RH  032%=      5-min Rain = 0
KSW1 121647Z 11004KT 04/M11 A3031 RMK A01 T00401111  RH  032%=      5-min Rain = 0
KSW1 121648Z 10004KT 04/M11 A3031 RMK A01 T00411114  RH  032%=      5-min Rain = 0
KSW1 121649Z 11005KT 04/M12 A3031 RMK A01 T00401115  RH  031%=      5-min Rain = 0
KSW1 121650Z 11006KT 04/M12 A3031 RMK A01 T00401115  RH  031%=      5-min Rain = 0
KSW1 121651Z 11005KT 04/M12 A3031 RMK A01 T00401115  RH  031%=      5-min Rain = 0
KSW1 121652Z 14004KT 04/M12 A3031 RMK A01 T00401115  RH  031%=      5-min Rain = 0
KSW1 121653Z 14004KT 04/M11 A3031 RMK A01 T00411114  RH  031%=      5-min Rain = 0
KSW1 121654Z 11006KT 04/M11 A3031 RMK A01 T00431111  RH  032%=      5-min Rain = 0
KSW1 121655Z 15004KT 04/M11 A3031 RMK A01 T00441113  RH  031%=      5-min Rain = 0
KSW1 121656Z 13004KT 04/M11 A3031 RMK A01 T00441114  RH  031%=      5-min Rain = 0
KSW1 121657Z 12002KT 04/M11 A3031 RMK A01 T00441113  RH  031%=      5-min Rain = 0
KSW1 121658Z 12001KT 05/M11 A3031 RMK A01 T00461110  RH  031%=      5-min Rain = 0
KSW1 121659Z 09005KT 05/M11 A3031 RMK A01 T00481109  RH  031%=      5-min Rain = 0
KSW1 121700Z 12005KT 05/M11 A3031 RMK A01 T00491110  RH  031%=      5-min Rain = 0
KSW1 121701Z 11004KT 05/M11 A3031 RMK A01 T00501110  RH  030%=      5-min Rain = 0
KSW1 121702Z 12004KT 05/M11 A3031 RMK A01 T00481113  RH  030%=      5-min Rain = 0
KSW1 121703Z 12004KT 05/M11 A3031 RMK A01 T00481112  RH  030%=      5-min Rain = 0
KSW1 121704Z 11004KT 05/M11 A3031 RMK A01 T00481112  RH  030%=      5-min Rain = 0
KSW1 121705Z 13005KT 05/M11 A3031 RMK A01 T00501112  RH  030%=      5-min Rain = 0
KSW1 121706Z 11005KT 05/M11 A3031 RMK A01 T00511113  RH  029%=      5-min Rain = 0
KSW1 121707Z 11006KT 05/M11 A3031 RMK A01 T00541111  RH  029%=      5-min Rain = 0
KSW1 121708Z 14005KT 06/M11 A3031 RMK A01 T00551113  RH  029%=      5-min Rain = 0
KSW1 121709Z 15005KT 06/M11 A3031 RMK A01 T00551114  RH  028%=      5-min Rain = 0
KSW1 121710Z 13005KT 06/M11 A3031 RMK A01 T00551114  RH  028%=      5-min Rain = 0
KSW1 121711Z 12004KT 05/M12 A3031 RMK A01 T00541116  RH  028%=      5-min Rain = 0
KSW1 121712Z 12006KT 05/M12 A303 RMK A01 T00541115  RH  028%=      5-min Rain = 0
KSW1 121713Z 13005KT 06/M11 A303 RMK A01 T00551112  RH  029%=      5-min Rain = 0
KSW1 121714Z 15004KT 06/M11 A303 RMK A01 T00571112  RH  029%=      5-min Rain = 0
KSW1 121715Z 14005KT 06/M11 A303 RMK A01 T00571113  RH  028%=      5-min Rain = 0
KSW1 121716Z 14006KT 06/M11 A303 RMK A01 T00571114  RH  028%=      5-min Rain = 0
KSW1 121717Z 14006KT 06/M11 A303 RMK A01 T00561114  RH  028%=      5-min Rain = 0
KSW1 121718Z 13007KT 06/M11 A303 RMK A01 T00571113  RH  028%=      5-min Rain = 0
KSW1 121719Z 15007KT 06/M11 A303 RMK A01 T00581112  RH  028%=      5-min Rain = 0
KSW1 121720Z 16005KT 06/M11 A3029 RMK A01 T00591113  RH  028%=      5-min Rain = 0
KSW1 121721Z 16004KT 06/M11 A3029 RMK A01 T00581114  RH  028%=      5-min Rain = 0
KSW1 121722Z 17003KT 06/M12 A3029 RMK A01 T00571115  RH  028%=      5-min Rain = 0
KSW1 121723Z 16006KT 06/M11 A3029 RMK A01 T00581111  RH  028%=      5-min Rain = 0
KSW1 121724Z 13006KT 06/M11 A3029 RMK A01 T00611110  RH  028%=      5-min Rain = 0
KSW1 121725Z 12006KT 06/M11 A3029 RMK A01 T00641109  RH  028%=      5-min Rain = 0
KSW1 121726Z 12006KT 07/M11 A3029 RMK A01 T00651110  RH  027%=      5-min Rain = 0
KSW1 121727Z 12006KT 07/M11 A3029 RMK A01 T00651111  RH  027%=      5-min Rain = 0
KSW1 121728Z 12004KT 06/M11 A3029 RMK A01 T00621114  RH  027%=      5-min Rain = 0
KSW1 121729Z 12006KT 06/M11 A3028 RMK A01 T00611114  RH  027%=      5-min Rain = 0
KSW1 121730Z 13008KT 06/M11 A3028 RMK A01 T00621113  RH  027%=      5-min Rain = 0
KSW1 121731Z 16006KT 06/M11 A3028 RMK A01 T00621114  RH  027%=      5-min Rain = 0
KSW1 121732Z 18004KT 06/M11 A3028 RMK A01 T00611114  RH  027%=      5-min Rain = 0
KSW1 121733Z 16003KT 06/M11 A3028 RMK A01 T00601114  RH  027%=      5-min Rain = 0
KSW1 121734Z 15004KT 06/M11 A3028 RMK A01 T00611112  RH  028%=      5-min Rain = 0
KSW1 121735Z 16007KT 07/M11 A3028 RMK A01 T00651109  RH  028%=      5-min Rain = 0
KSW1 121736Z 14007KT 07/M11 A3028 RMK A01 T00671114  RH  026%=      5-min Rain = 0
KSW1 121737Z 14006KT 07/M12 A3028 RMK A01 T00661118  RH  025%=      5-min Rain = 0
KSW1 121738Z 13006KT 07/M12 A3028 RMK A01 T00651118  RH  026%=      5-min Rain = 0
KSW1 121739Z 13005KT 07/M12 A3028 RMK A01 T00661117  RH  026%=      5-min Rain = 0
KSW1 121740Z 16006KT 07/M11 A3028 RMK A01 T00691113  RH  026%=      5-min Rain = 0
KSW1 121741Z 14005KT 07/M11 A3028 RMK A01 T00731111  RH  026%=      5-min Rain = 0
KSW1 121742Z 12005KT 08/M11 A3027 RMK A01 T00761111  RH  025%=      5-min Rain = 0
KSW1 121743Z 14009KT 08/M12 A3027 RMK A01 T00771115  RH  024%=      5-min Rain = 0
KSW1 121744Z 16007KT 08/M12 A3027 RMK A01 T00751117  RH  024%=      5-min Rain = 0
KSW1 121745Z 16005KT 07/M12 A3027 RMK A01 T00711122  RH  024%=      5-min Rain = 0
KSW1 121746Z 15009KT 07/M12 A3027 RMK A01 T00701119  RH  025%=      5-min Rain = 0
KSW1 121747Z 12008KT 07/M12 A3027 RMK A01 T00721118  RH  024%=      5-min Rain = 0
KSW1 121748Z 12008KT 07/M12 A3027 RMK A01 T00731120  RH  024%=      5-min Rain = 0
KSW1 121749Z 13010KT 07/M12 A3027 RMK A01 T00741120  RH  024%=      5-min Rain = 0
KSW1 121750Z 11008KT 08/M12 A3027 RMK A01 T00751122  RH  023%=      5-min Rain = 0
KSW1 121751Z 11008KT 08/M12 A3027 RMK A01 T00751120  RH  024%=      5-min Rain = 0
KSW1 121752Z 12007KT 08/M12 A3027 RMK A01 T00751122  RH  023%=      5-min Rain = 0
KSW1 121753Z 13008KT 07/M12 A3027 RMK A01 T00731123  RH  023%=      5-min Rain = 0
KSW1 121754Z 14009KT 07/M12 A3027 RMK A01 T00731124  RH  023%=      5-min Rain = 0
KSW1 121755Z 14009KT 07/M13 A3027 RMK A01 T00731126  RH  023%=      5-min Rain = 0
KSW1 121756Z 14008KT 08/M12 A3027 RMK A01 T00751124  RH  023%=      5-min Rain = 0
KSW1 121757Z 14008KT 07/M12 A3027 RMK A01 T00741123  RH  023%=      5-min Rain = 0
KSW1 121758Z 14008KT 08/M12 A3027 RMK A01 T00781118  RH  024%=      5-min Rain = 0
KSW1 121759Z 12007KT 08/M12 A3027 RMK A01 T00801121  RH  023%=      5-min Rain = 0
KSW1 121800Z 10008KT 08/M12 A3027 RMK A01 T00791122  RH  023%=      5-min Rain = 0
KSW1 121801Z 10007KT 08/M12 A3027 RMK A01 T00791121  RH  023%=      5-min Rain = 0
KSW1 121802Z 11007KT 08/M12 A3027 RMK A01 T00781120  RH  023%=      5-min Rain = 0
KSW1 121803Z 14007KT 08/M12 A3027 RMK A01 T00781119  RH  023%=      5-min Rain = 0
KSW1 121804Z 18007KT 08/M12 A3026 RMK A01 T00801119  RH  023%=      5-min Rain = 0
KSW1 121805Z 16009KT 08/M12 A3026 RMK A01 T00791122  RH  023%=      5-min Rain = 0
KSW1 121806Z 14008KT 08/M12 A3026 RMK A01 T00791121  RH  023%=      5-min Rain = 0
KSW1 121807Z 12006KT 08/M12 A3026 RMK A01 T00791120  RH  023%=      5-min Rain = 0
KSW1 121808Z 13008KT 08/M12 A3026 RMK A01 T00831118  RH  023%=      5-min Rain = 0
KSW1 121809Z 16007KT 09/M12 A3026 RMK A01 T00851118  RH  022%=      5-min Rain = 0
KSW1 121810Z 17007KT 08/M12 A3026 RMK A01 T00831122  RH  022%=      5-min Rain = 0
KSW1 121811Z 15008KT 08/M12 A3026 RMK A01 T00801121  RH  023%=      5-min Rain = 0
KSW1 121812Z 14005KT 08/M12 A3026 RMK A01 T00811120  RH  023%=      5-min Rain = 0
KSW1 121813Z 13007KT 08/M12 A3026 RMK A01 T00821121  RH  022%=      5-min Rain = 0
KSW1 121814Z 13009KT 08/M12 A3026 RMK A01 T00841120  RH  022%=      5-min Rain = 0
KSW1 121815Z 14011KT 08/M12 A3026 RMK A01 T00831120  RH  022%=      5-min Rain = 0
KSW1 121816Z 15011KT 08/M12 A3026 RMK A01 T00821122  RH  022%=      5-min Rain = 0
KSW1 121817Z 15009KT 08/M12 A3026 RMK A01 T00811123  RH  022%=      5-min Rain = 0
KSW1 121818Z 14010KT 08/M12 A3026 RMK A01 T00811122  RH  022%=      5-min Rain = 0
KSW1 121819Z 15009KT 08/M12 A3025 RMK A01 T00831120  RH  022%=      5-min Rain = 0
KSW1 121820Z 16007KT 08/M12 A3026 RMK A01 T00821123  RH  022%=      5-min Rain = 0
KSW1 121821Z 15007KT 08/M12 A3026 RMK A01 T00801124  RH  022%=      5-min Rain = 0
KSW1 121822Z 15004KT 08/M13 A3025 RMK A01 T00781125  RH  022%=      5-min Rain = 0
KSW1 121823Z 15009KT 08/M12 A3025 RMK A01 T00801121  RH  023%=      5-min Rain = 0
KSW1 121824Z 12009KT 08/M12 A3025 RMK A01 T00831119  RH  022%=      5-min Rain = 0
KSW1 121825Z 13006KT 08/M12 A3025 RMK A01 T00821122  RH  022%=      5-min Rain = 0
KSW1 121826Z 14009KT 08/M12 A3025 RMK A01 T00821120  RH  022%=      5-min Rain = 0
KSW1 121827Z 11010KT 09/M12 A3025 RMK A01 T00871116  RH  022%=      5-min Rain = 0
KSW1 121828Z 11007KT 09/M12 A3025 RMK A01 T00861120  RH  022%=      5-min Rain = 0
KSW1 121829Z 14008KT 08/M12 A3025 RMK A01 T00841121  RH  022%=      5-min Rain = 0
KSW1 121830Z 13008KT 08/M12 A3025 RMK A01 T00831121  RH  022%=      5-min Rain = 0
KSW1 121831Z 12008KT 08/M12 A3025 RMK A01 T00811123  RH  022%=      5-min Rain = 0
KSW1 121832Z 12008KT 08/M12 A3024 RMK A01 T00801123  RH  022%=      5-min Rain = 0
KSW1 121833Z 12008KT 08/M12 A3024 RMK A01 T00791122  RH  023%=      5-min Rain = 0
KSW1 121834Z 12006KT 08/M12 A3024 RMK A01 T00801120  RH  023%=      5-min Rain = 0
KSW1 121835Z 12010KT 08/M12 A3024 RMK A01 T00831117  RH  023%=      5-min Rain = 0
KSW1 121836Z 13009KT 09/M12 A3024 RMK A01 T00851118  RH  023%=      5-min Rain = 0
KSW1 121837Z 15008KT 09/M12 A3024 RMK A01 T00861117  RH  022%=      5-min Rain = 0
KSW1 121838Z 14008KT 09/M12 A3024 RMK A01 T00881118  RH  022%=      5-min Rain = 0
KSW1 121839Z 15009KT 09/M12 A3024 RMK A01 T00881119  RH  022%=      5-min Rain = 0
KSW1 121840Z 14009KT 09/M12 A3024 RMK A01 T00871119  RH  022%=      5-min Rain = 0
KSW1 121841Z 14008KT 09/M12 A3023 RMK A01 T00871119  RH  022%=      5-min Rain = 0
KSW1 121842Z 11010KT 09/M12 A3023 RMK A01 T00861120  RH  022%=      5-min Rain = 0
KSW1 121843Z 11007KT 08/M12 A3023 RMK A01 T00841120  RH  022%=      5-min Rain = 0
KSW1 121844Z 13010KT 08/M12 A3023 RMK A01 T00831119  RH  023%=      5-min Rain = 0
KSW1 121845Z 14008KT 08/M12 A3023 RMK A01 T00841118  RH  023%=      5-min Rain = 0
KSW1 121846Z 13010KT 08/M12 A3023 RMK A01 T00831119  RH  022%=      5-min Rain = 0
KSW1 121847Z 13011KT 08/M12 A3023 RMK A01 T00831117  RH  023%=      5-min Rain = 0
KSW1 121848Z 12008KT 08/M12 A3023 RMK A01 T00821118  RH  023%=      5-min Rain = 0
KSW1 121849Z 12007KT 08/M12 A3022 RMK A01 T00821117  RH  023%=      5-min Rain = 0
KSW1 121850Z 13006KT 08/M12 A3022 RMK A01 T00821117  RH  023%=      5-min Rain = 0
KSW1 121851Z 14011KT 08/M12 A3022 RMK A01 T00831117  RH  023%=      5-min Rain = 0
KSW1 121852Z 14011KT 08/M12 A3022 RMK A01 T00841116  RH  023%=      5-min Rain = 0
KSW1 121853Z 13009KT 09/M12 A3022 RMK A01 T00851117  RH  023%=      5-min Rain = 0
KSW1 121854Z 13008KT 09/M12 A3022 RMK A01 T00851116  RH  023%=      5-min Rain = 0
KSW1 121855Z 13010KT 09/M12 A3022 RMK A01 T00851118  RH  022%=      5-min Rain = 0
KSW1 121856Z 15011KT 09/M12 A3022 RMK A01 T00891115  RH  022%=      5-min Rain = 0
KSW1 121857Z 15010KT 09/M12 A3022 RMK A01 T00931117  RH  021%=      5-min Rain = 0
KSW1 121858Z 14009KT 09/M12 A3022 RMK A01 T00911119  RH  021%=      5-min Rain = 0
KSW1 121859Z 15011KT 09/M12 A3022 RMK A01 T00911119  RH  021%=      5-min Rain = 0
KSW1 121900Z 15012KT 09/M12 A3021 RMK A01 T00881122  RH  021%=      5-min Rain = 0
KSW1 121901Z 14011KT 09/M12 A3022 RMK A01 T00881118  RH  022%=      5-min Rain = 0
KSW1 121902Z 15008KT 09/M12 A3022 RMK A01 T00881119  RH  022%=      5-min Rain = 0
KSW1 121903Z 16007KT 09/M12 A3022 RMK A01 T00871121  RH  022%=      5-min Rain = 0
KSW1 121904Z 16012KT 09/M12 A3021 RMK A01 T00871120  RH  022%=      5-min Rain = 0
KSW1 121905Z 14011KT 09/M12 A3022 RMK A01 T00901119  RH  022%=      5-min Rain = 0
KSW1 121906Z 14010KT 09/M12 A3021 RMK A01 T00911121  RH  021%=      5-min Rain = 0
KSW1 121907Z 13009KT 09/M12 A3022 RMK A01 T00911120  RH  021%=      5-min Rain = 0
KSW1 121908Z 13009KT 09/M12 A3022 RMK A01 T00911119  RH  021%=      5-min Rain = 0
KSW1 121909Z 16010KT 09/M12 A3022 RMK A01 T00921120  RH  021%=      5-min Rain = 0
KSW1 121910Z 16010KT 09/M12 A3022 RMK A01 T00921121  RH  021%=      5-min Rain = 0
KSW1 121911Z 16010KT 09/M12 A3022 RMK A01 T00891124  RH  021%=      5-min Rain = 0
KSW1 121912Z 16009KT 09/M12 A3022 RMK A01 T00881122  RH  021%=      5-min Rain = 0
KSW1 121913Z 16009KT 09/M12 A3022 RMK A01 T00861123  RH  021%=      5-min Rain = 0
KSW1 121914Z 15009KT 09/M12 A3022 RMK A01 T00851122  RH  022%=      5-min Rain = 0
KSW1 121915Z 14009KT 09/M12 A3022 RMK A01 T00861122  RH  022%=      5-min Rain = 0
KSW1 121916Z 14010KT 09/M12 A3021 RMK A01 T00891120  RH  022%=      5-min Rain = 0
KSW1 121917Z 15008KT 09/M12 A3021 RMK A01 T00931119  RH  021%=      5-min Rain = 0
KSW1 121918Z 14006KT 09/M12 A3021 RMK A01 T00941121  RH  020%=      5-min Rain = 0
KSW1 121919Z 14009KT 10/M12 A3021 RMK A01 T00961118  RH  021%=      5-min Rain = 0
KSW1 121920Z 14010KT 10/M12 A3021 RMK A01 T00981117  RH  021%=      5-min Rain = 0
KSW1 121921Z 14007KT 10/M12 A3021 RMK A01 T00951122  RH  020%=      5-min Rain = 0
KSW1 121922Z 14009KT 09/M12 A3021 RMK A01 T00941121  RH  021%=      5-min Rain = 0
KSW1 121923Z 13008KT 09/M12 A3021 RMK A01 T00931120  RH  021%=      5-min Rain = 0
KSW1 121924Z 13009KT 09/M12 A3021 RMK A01 T00901120  RH  021%=      5-min Rain = 0
KSW1 121925Z 14010KT 09/M12 A3021 RMK A01 T00921118  RH  021%=      5-min Rain = 0
KSW1 121926Z 14008KT 09/M12 A3021 RMK A01 T00931116  RH  021%=      5-min Rain = 0
KSW1 121927Z 14011G16KT 10/M12 A3021 RMK A01 T00961116  RH  021%=      5-min Rain = 0
KSW1 121928Z 13011KT 10/M12 A3021 RMK A01 T00951119  RH  021%=      5-min Rain = 0
KSW1 121929Z 13011KT 09/M12 A3021 RMK A01 T00941122  RH  020%=      5-min Rain = 0
KSW1 121930Z 12012KT 10/M12 A3021 RMK A01 T00951121  RH  020%=      5-min Rain = 0
KSW1 121931Z 13012KT 09/M12 A302 RMK A01 T00931123  RH  020%=      5-min Rain = 0
KSW1 121932Z 13009KT 09/M12 A302 RMK A01 T00921122  RH  021%=      5-min Rain = 0
KSW1 121933Z 13009KT 09/M12 A302 RMK A01 T00941120  RH  021%=      5-min Rain = 0
KSW1 121934Z 14006KT 10/M12 A302 RMK A01 T00951120  RH  021%=      5-min Rain = 0
KSW1 121935Z 14008KT 10/M12 A302 RMK A01 T00961119  RH  021%=      5-min Rain = 0
KSW1 121936Z 13011KT 10/M12 A302 RMK A01 T00981116  RH  021%=      5-min Rain = 0
KSW1 121937Z 13009KT 10/M12 A302 RMK A01 T00971120  RH  020%=      5-min Rain = 0
KSW1 121938Z 14010KT 10/M12 A302 RMK A01 T00951121  RH  020%=      5-min Rain = 0
KSW1 121939Z 14011KT 10/M12 A302 RMK A01 T00981121  RH  020%=      5-min Rain = 0
KSW1 121940Z 14012KT 10/M13 A302 RMK A01 T00961125  RH  020%=      5-min Rain = 0
KSW1 121941Z 15011KT 09/M13 A302 RMK A01 T00941125  RH  020%=      5-min Rain = 0
KSW1 121942Z 16010KT 09/M12 A3019 RMK A01 T00931123  RH  020%=      5-min Rain = 0
KSW1 121943Z 17009KT 09/M12 A3019 RMK A01 T00941122  RH  020%=      5-min Rain = 0
KSW1 121944Z 14006KT 09/M12 A3019 RMK A01 T00941123  RH  020%=      5-min Rain = 0
KSW1 121945Z 14011KT 10/M12 A3019 RMK A01 T00961121  RH  020%=      5-min Rain = 0
KSW1 121946Z 14009KT 10/M12 A302 RMK A01 T01011117  RH  020%=      5-min Rain = 0
KSW1 121947Z 14007KT 10/M12 A302 RMK A01 T01011122  RH  020%=      5-min Rain = 0
KSW1 121948Z 12006KT 10/M13 A302 RMK A01 T00971125  RH  019%=      5-min Rain = 0
KSW1 121949Z 13011KT 10/M12 A3019 RMK A01 T00981121  RH  020%=      5-min Rain = 0
KSW1 121950Z 13013KT 10/M12 A3019 RMK A01 T01011123  RH  019%=      5-min Rain = 0
KSW1 121951Z 14010KT 10/M13 A302 RMK A01 T00981126  RH  019%=      5-min Rain = 0
KSW1 121952Z 14012KT 10/M13 A3019 RMK A01 T00961127  RH  019%=      5-min Rain = 0
KSW1 121953Z 15011KT 10/M13 A3019 RMK A01 T00951126  RH  020%=      5-min Rain = 0
KSW1 121954Z 14011KT 10/M13 A3019 RMK A01 T00951125  RH  020%=      5-min Rain = 0
KSW1 121955Z 13008KT 09/M13 A3019 RMK A01 T00931125  RH  020%=      5-min Rain = 0
KSW1 121956Z 13008KT 10/M12 A3019 RMK A01 T00951122  RH  020%=      5-min Rain = 0
KSW1 121957Z 14008KT 10/M12 A3019 RMK A01 T00951123  RH  020%=      5-min Rain = 0
KSW1 121958Z 14008KT 10/M12 A3019 RMK A01 T00961121  RH  020%=      5-min Rain = 0
KSW1 121959Z 14012KT 10/M12 A3019 RMK A01 T00981120  RH  020%=      5-min Rain = 0
KSW1 122000Z 13009KT 10/M12 A3019 RMK A01 T00991120  RH  020%=      5-min Rain = 0
KSW1 122001Z 13010KT 10/M12 A3019 RMK A01 T00991119  RH  020%=      5-min Rain = 0
KSW1 122002Z 13009KT 10/M12 A3019 RMK A01 T00991121  RH  020%=      5-min Rain = 0
KSW1 122003Z 15009KT 10/M12 A3019 RMK A01 T01021117  RH  020%=      5-min Rain = 0
KSW1 122004Z 16010KT 10/M12 A3019 RMK A01 T01031119  RH  020%=      5-min Rain = 0
KSW1 122005Z 15009KT 10/M12 A3019 RMK A01 T01031119  RH  020%=      5-min Rain = 0
KSW1 122006Z 14011KT 10/M12 A3018 RMK A01 T01031120  RH  019%=      5-min Rain = 0
KSW1 122007Z 15012KT 10/M12 A3018 RMK A01 T01021121  RH  020%=      5-min Rain = 0
KSW1 122008Z 15011KT 10/M12 A3018 RMK A01 T01001122  RH  020%=      5-min Rain = 0
KSW1 122009Z 16007KT 10/M12 A3018 RMK A01 T00971122  RH  020%=      5-min Rain = 0
KSW1 122010Z 17007KT 10/M12 A3018 RMK A01 T00961122  RH  020%=      5-min Rain = 0
KSW1 122011Z 15009KT 10/M12 A3018 RMK A01 T00971120  RH  020%=      5-min Rain = 0
KSW1 122012Z 15011KT 10/M12 A3018 RMK A01 T01001118  RH  020%=      5-min Rain = 0
KSW1 122013Z 16011KT 10/M12 A3018 RMK A01 T01001119  RH  020%=      5-min Rain = 0
KSW1 122014Z 18010KT 10/M12 A3018 RMK A01 T01011119  RH  020%=      5-min Rain = 0
KSW1 122015Z 16008KT 10/M12 A3018 RMK A01 T01001120  RH  020%=      5-min Rain = 0
KSW1 122016Z 15008KT 10/M12 A3018 RMK A01 T00991120  RH  020%=      5-min Rain = 0
KSW1 122017Z 17007KT 10/M12 A3018 RMK A01 T00991120  RH  020%=      5-min Rain = 0
KSW1 122018Z 16006KT 10/M12 A3018 RMK A01 T01001119  RH  020%=      5-min Rain = 0
KSW1 122019Z 15009KT 10/M12 A3018 RMK A01 T01011118  RH  020%=      5-min Rain = 0
KSW1 122020Z 15013KT 11/M12 A3018 RMK A01 T01051116  RH  020%=      5-min Rain = 0
KSW1 122021Z 17009KT 10/M12 A3018 RMK A01 T01031120  RH  020%=      5-min Rain = 0
KSW1 122022Z 16009KT 10/M12 A3018 RMK A01 T01021119  RH  020%=      5-min Rain = 0
KSW1 122023Z 16008KT 10/M12 A3018 RMK A01 T00981123  RH  020%=      5-min Rain = 0
KSW1 122024Z 15005KT 10/M12 A3018 RMK A01 T00971121  RH  020%=      5-min Rain = 0
KSW1 122025Z 15004KT 10/M12 A3018 RMK A01 T00991120  RH  020%=      5-min Rain = 0
KSW1 122026Z 17007G12KT 10/M12 A3017 RMK A01 T00981120  RH  020%=      5-min Rain = 0
KSW1 122027Z 15011KT 10/M12 A3018 RMK A01 T01011117  RH  020%=      5-min Rain = 0
KSW1 122028Z 14009KT 10/M12 A3018 RMK A01 T01031118  RH  020%=      5-min Rain = 0
KSW1 122029Z 14010KT 10/M12 A3018 RMK A01 T01021118  RH  020%=      5-min Rain = 0
KSW1 122030Z 15009KT 10/M12 A3018 RMK A01 T01021118  RH  020%=      5-min Rain = 0
KSW1 122031Z 17010KT 10/M12 A3017 RMK A01 T01021117  RH  020%=      5-min Rain = 0
KSW1 122032Z 17008KT 10/M12 A3017 RMK A01 T01001118  RH  020%=      5-min Rain = 0
KSW1 122033Z 16007KT 10/M12 A3017 RMK A01 T00981119  RH  020%=      5-min Rain = 0
KSW1 122034Z 18007KT 10/M12 A3017 RMK A01 T00961120  RH  020%=      5-min Rain = 0
KSW1 122035Z 14011KT 10/M12 A3017 RMK A01 T00981116  RH  021%=      5-min Rain = 0
KSW1 122036Z 14012KT 10/M12 A3017 RMK A01 T01011116  RH  021%=      5-min Rain = 0
KSW1 122037Z 16010KT 10/M11 A3018 RMK A01 T01031114  RH  021%=      5-min Rain = 0
KSW1 122038Z 15007KT 10/M12 A3018 RMK A01 T01021117  RH  020%=      5-min Rain = 0
KSW1 122039Z 14008KT 10/M12 A3018 RMK A01 T00991118  RH  020%=      5-min Rain = 0
KSW1 122040Z 16012KT 10/M12 A3017 RMK A01 T01001116  RH  021%=      5-min Rain = 0
KSW1 122041Z 16012KT 10/M12 A3017 RMK A01 T01021116  RH  020%=      5-min Rain = 0
KSW1 122042Z 17013KT 10/M12 A3017 RMK A01 T01011116  RH  020%=      5-min Rain = 0
KSW1 122043Z 17010KT 10/M12 A3017 RMK A01 T01011116  RH  020%=      5-min Rain = 0
KSW1 122044Z 16010KT 10/M12 A3017 RMK A01 T01011115  RH  021%=      5-min Rain = 0
KSW1 122045Z 16011KT 10/M12 A3017 RMK A01 T01021115  RH  020%=      5-min Rain = 0
KSW1 122046Z 17007KT 10/M12 A3018 RMK A01 T01021115  RH  020%=      5-min Rain = 0
KSW1 122047Z 17005KT 10/M12 A3018 RMK A01 T01011115  RH  021%=      5-min Rain = 0
KSW1 122048Z 17005KT 10/M12 A3018 RMK A01 T01011116  RH  020%=      5-min Rain = 0
KSW1 122049Z 17011KT 10/M12 A3018 RMK A01 T00991117  RH  021%=      5-min Rain = 0
KSW1 122050Z 17008KT 10/M11 A3018 RMK A01 T01001114  RH  021%=      5-min Rain = 0
KSW1 122051Z 18011KT 10/M11 A3018 RMK A01 T01041112  RH  021%=      5-min Rain = 0
KSW1 122052Z 18010KT 10/M11 A3018 RMK A01 T01041113  RH  021%=      5-min Rain = 0
KSW1 122053Z 17007KT 10/M11 A3018 RMK A01 T01031114  RH  021%=      5-min Rain = 0
KSW1 122054Z 15005KT 10/M11 A3018 RMK A01 T01031114  RH  020%=      5-min Rain = 0
KSW1 122055Z 18008G13KT 10/M11 A3018 RMK A01 T01041112  RH  021%=      5-min Rain = 0
KSW1 122056Z 16011KT 10/M11 A3018 RMK A01 T01041114  RH  020%=      5-min Rain = 0
KSW1 122057Z 18006KT 10/M12 A3018 RMK A01 T01021115  RH  020%=      5-min Rain = 0
KSW1 122058Z 15008G13KT 10/M12 A3018 RMK A01 T01001115  RH  021%=      5-min Rain = 0
KSW1 122059Z 13010KT 10/M11 A3018 RMK A01 T01021113  RH  021%=      5-min Rain = 0
KSW1 122100Z 14012KT 10/M11 A3018 RMK A01 T01021114  RH  021%=      5-min Rain = 0
KSW1 122101Z 15008KT 10/M11 A3018 RMK A01 T01031113  RH  021%=      5-min Rain = 0
KSW1 122102Z 17005KT 10/M11 A3018 RMK A01 T01041113  RH  020%=      5-min Rain = 0
KSW1 122103Z 17006KT 11/M11 A3018 RMK A01 T01051113  RH  020%=      5-min Rain = 0
KSW1 122104Z 19009KT 11/M11 A3018 RMK A01 T01061112  RH  020%=      5-min Rain = 0
KSW1 122105Z 16009KT 11/M11 A3018 RMK A01 T01051114  RH  020%=      5-min Rain = 0
KSW1 122106Z 15009KT 10/M12 A3018 RMK A01 T01031115  RH  020%=      5-min Rain = 0
KSW1 122107Z 18006KT 10/M11 A3018 RMK A01 T01041114  RH  020%=      5-min Rain = 0
KSW1 122108Z 18009KT 10/M11 A3018 RMK A01 T01041113  RH  020%=      5-min Rain = 0
KSW1 122109Z 16011KT 10/M11 A3018 RMK A01 T01041114  RH  020%=      5-min Rain = 0
KSW1 122110Z 15009KT 10/M11 A3018 RMK A01 T01031114  RH  020%=      5-min Rain = 0
KSW1 122111Z 18010KT 11/M11 A3018 RMK A01 T01051112  RH  021%=      5-min Rain = 0
KSW1 122112Z 19009KT 11/M11 A3018 RMK A01 T01051113  RH  020%=      5-min Rain = 0
KSW1 122113Z 20008KT 10/M11 A3018 RMK A01 T01041113  RH  021%=      5-min Rain = 0
KSW1 122114Z 21007KT 11/M11 A3018 RMK A01 T01051112  RH  021%=      5-min Rain = 0
KSW1 122115Z 16007KT 10/M11 A3018 RMK A01 T01031113  RH  021%=      5-min Rain = 0
KSW1 122116Z 14007KT 10/M11 A3018 RMK A01 T01041111  RH  021%=      5-min Rain = 0
KSW1 122117Z 15009KT 11/M11 A3018 RMK A01 T01081110  RH  021%=      5-min Rain = 0
KSW1 122118Z 14010KT 11/M11 A3018 RMK A01 T01071112  RH  020%=      5-min Rain = 0
KSW1 122119Z 13007KT 11/M11 A3018 RMK A01 T01061112  RH  020%=      5-min Rain = 0
KSW1 122120Z 13007KT 11/M11 A3018 RMK A01 T01051113  RH  020%=      5-min Rain = 0
KSW1 122121Z 17007KT 10/M11 A3018 RMK A01 T01031114  RH  020%=      5-min Rain = 0
KSW1 122122Z 19009KT 10/M11 A3018 RMK A01 T01041110  RH  021%=      5-min Rain = 0
KSW1 122123Z 19010KT 11/M11 A3018 RMK A01 T01061110  RH  021%=      5-min Rain = 0
KSW1 122124Z 19006KT 11/M11 A3018 RMK A01 T01051110  RH  021%=      5-min Rain = 0
KSW1 122125Z 20005KT 10/M11 A3018 RMK A01 T01031113  RH  021%=      5-min Rain = 0
KSW1 122126Z 18004KT 10/M11 A3018 RMK A01 T01031112  RH  021%=      5-min Rain = 0
KSW1 122127Z 14008KT 10/M11 A3018 RMK A01 T01031111  RH  021%=      5-min Rain = 0
KSW1 122128Z 17007KT 10/M11 A3018 RMK A01 T01031112  RH  021%=      5-min Rain = 0
KSW1 122129Z 17011KT 10/M11 A3018 RMK A01 T01041112  RH  021%=      5-min Rain = 0
KSW1 122130Z 16011KT 10/M11 A3018 RMK A01 T01041112  RH  021%=      5-min Rain = 0
KSW1 122131Z 16008KT 10/M11 A3018 RMK A01 T01031113  RH  021%=      5-min Rain = 0
KSW1 122132Z 18009KT 10/M11 A3018 RMK A01 T01021113  RH  021%=      5-min Rain = 0
KSW1 122133Z 16009KT 10/M11 A3018 RMK A01 T01031111  RH  021%=      5-min Rain = 0
KSW1 122134Z 13008KT 11/M11 A3019 RMK A01 T01051110  RH  021%=      5-min Rain = 0
KSW1 122135Z 13007KT 11/M11 A3019 RMK A01 T01051112  RH  021%=      5-min Rain = 0
KSW1 122136Z 16008KT 10/M11 A3019 RMK A01 T01041112  RH  021%=      5-min Rain = 0
KSW1 122137Z 15007KT 10/M11 A3019 RMK A01 T01041112  RH  021%=      5-min Rain = 0
KSW1 122138Z 15007KT 10/M11 A3019 RMK A01 T01031112  RH  021%=      5-min Rain = 0
KSW1 122139Z 16007KT 10/M11 A3019 RMK A01 T01031111  RH  021%=      5-min Rain = 0
KSW1 122140Z 17010KT 10/M11 A3019 RMK A01 T01041109  RH  021%=      5-min Rain = 0
KSW1 122141Z 18011KT 11/M11 A3018 RMK A01 T01051108  RH  021%=      5-min Rain = 0
KSW1 122142Z 18010KT 11/M11 A3018 RMK A01 T01051108  RH  021%=      5-min Rain = 0
KSW1 122143Z 17010KT 11/M11 A3018 RMK A01 T01051109  RH  021%=      5-min Rain = 0
KSW1 122144Z 15009KT 11/M11 A3018 RMK A01 T01051110  RH  021%=      5-min Rain = 0
KSW1 122145Z 14009KT 10/M11 A3018 RMK A01 T01041111  RH  021%=      5-min Rain = 0
KSW1 122146Z 16006G11KT 10/M11 A3018 RMK A01 T01031111  RH  021%=      5-min Rain = 0
KSW1 122147Z 16010KT 10/M11 A3018 RMK A01 T01021111  RH  021%=      5-min Rain = 0
KSW1 122148Z 17011KT 10/M11 A3018 RMK A01 T01031109  RH  021%=      5-min Rain = 0
KSW1 122149Z 18010KT 10/M11 A3018 RMK A01 T01041109  RH  021%=      5-min Rain = 0
KSW1 122150Z 16011KT 11/M11 A3018 RMK A01 T01051108  RH  021%=      5-min Rain = 0
KSW1 122151Z 16009KT 10/M11 A3018 RMK A01 T01041110  RH  021%=      5-min Rain = 0
KSW1 122152Z 16009KT 10/M11 A3018 RMK A01 T01031110  RH  021%=      5-min Rain = 0
KSW1 122153Z 16009G15KT 10/M11 A3018 RMK A01 T01031110  RH  021%=      5-min Rain = 0
KSW1 122154Z 17010KT 10/M11 A3018 RMK A01 T01041108  RH  021%=      5-min Rain = 0
KSW1 122155Z 16009KT 10/M11 A3018 RMK A01 T01041107  RH  021%=      5-min Rain = 0
KSW1 122156Z 18010KT 11/M11 A3018 RMK A01 T01051107  RH  021%=      5-min Rain = 0
KSW1 122157Z 18009KT 11/M11 A3018 RMK A01 T01061105  RH  022%=      5-min Rain = 0
KSW1 122158Z 19009KT 11/M11 A3018 RMK A01 T01061105  RH  022%=      5-min Rain = 0
KSW1 122159Z 19006KT 11/M11 A3018 RMK A01 T01061105  RH  022%=      5-min Rain = 0
KSW1 122200Z 19007KT 11/M11 A3018 RMK A01 T01051106  RH  022%=      5-min Rain = 0
KSW1 122201Z 21006KT 10/M11 A3018 RMK A01 T01041106  RH  022%=      5-min Rain = 0
KSW1 122202Z 21005KT 10/M11 A3018 RMK A01 T01041106  RH  022%=      5-min Rain = 0
KSW1 122203Z 18006KT 10/M11 A3018 RMK A01 T01031107  RH  022%=      5-min Rain = 0
KSW1 122204Z 18006KT 10/M10 A3018 RMK A01 T01041104  RH  022%=      5-min Rain = 0
KSW1 122205Z 17006KT 11/M11 A3018 RMK A01 T01051105  RH  022%=      5-min Rain = 0
KSW1 122206Z 17008KT 11/M10 A3018 RMK A01 T01061103  RH  022%=      5-min Rain = 0
KSW1 122207Z 18011KT 11/M10 A3018 RMK A01 T01091102  RH  022%=      5-min Rain = 0
KSW1 122208Z 18011KT 11/M10 A3018 RMK A01 T01081103  RH  022%=      5-min Rain = 0
KSW1 122209Z 19009KT 11/M11 A3018 RMK A01 T01061105  RH  022%=      5-min Rain = 0
KSW1 122210Z 19006KT 10/M11 A3018 RMK A01 T01031107  RH  022%=      5-min Rain = 0
KSW1 122211Z 18008KT 10/M11 A3018 RMK A01 T01031105  RH  022%=      5-min Rain = 0
KSW1 122212Z 18009KT 10/M10 A3018 RMK A01 T01041104  RH  022%=      5-min Rain = 0
KSW1 122213Z 17006KT 10/M11 A3018 RMK A01 T01041105  RH  022%=      5-min Rain = 0
KSW1 122214Z 16007KT 10/M11 A3018 RMK A01 T01031105  RH  022%=      5-min Rain = 0
KSW1 122215Z 15008KT 10/M11 A3018 RMK A01 T01041106  RH  022%=      5-min Rain = 0
KSW1 122216Z 15009KT 10/M11 A3018 RMK A01 T01041107  RH  022%=      5-min Rain = 0
KSW1 122217Z 15009KT 10/M11 A3018 RMK A01 T01041107  RH  022%=      5-min Rain = 0
KSW1 122218Z 15007KT 10/M11 A3018 RMK A01 T01031107  RH  022%=      5-min Rain = 0
KSW1 122219Z 17005KT 10/M11 A3018 RMK A01 T01031107  RH  022%=      5-min Rain = 0
KSW1 122220Z 17009KT 10/M11 A3018 RMK A01 T01041106  RH  022%=      5-min Rain = 0
KSW1 122221Z 15008KT 10/M11 A3018 RMK A01 T01041106  RH  022%=      5-min Rain = 0
KSW1 122222Z 14007KT 11/M11 A3018 RMK A01 T01061105  RH  022%=      5-min Rain = 0
KSW1 122223Z 15009KT 11/M11 A3018 RMK A01 T01061105  RH  022%=      5-min Rain = 0
KSW1 122224Z 17008KT 11/M11 A3018 RMK A01 T01071105  RH  021%=      5-min Rain = 0
KSW1 122225Z 18007KT 11/M11 A3018 RMK A01 T01061106  RH  021%=      5-min Rain = 0
KSW1 122226Z 16007KT 11/M11 A3018 RMK A01 T01051107  RH  021%=      5-min Rain = 0
KSW1 122227Z 16008KT 11/M11 A3018 RMK A01 T01061106  RH  021%=      5-min Rain = 0
KSW1 122228Z 17009KT 10/M11 A3018 RMK A01 T01041107  RH  021%=      5-min Rain = 0
KSW1 122229Z 16009KT 11/M11 A3018 RMK A01 T01051105  RH  022%=      5-min Rain = 0
KSW1 122230Z 17009KT 10/M11 A3018 RMK A01 T01041106  RH  022%=      5-min Rain = 0
KSW1 122231Z 15009KT 10/M11 A3018 RMK A01 T01041107  RH  022%=      5-min Rain = 0
KSW1 122232Z 15008KT 10/M11 A3018 RMK A01 T01031107  RH  022%=      5-min Rain = 0
KSW1 122233Z 16008KT 10/M11 A3018 RMK A01 T01021108  RH  022%=      5-min Rain = 0
KSW1 122234Z 14007KT 10/M11 A3018 RMK A01 T01011107  RH  022%=      5-min Rain = 0
KSW1 122235Z 12006KT 10/M11 A3018 RMK A01 T01021106  RH  022%=      5-min Rain = 0
KSW1 122236Z 13006KT 10/M11 A3018 RMK A01 T01021107  RH  022%=      5-min Rain = 0
KSW1 122237Z 16008KT 10/M11 A3018 RMK A01 T01021107  RH  022%=      5-min Rain = 0
KSW1 122238Z 16010KT 10/M11 A3018 RMK A01 T01021107  RH  022%=      5-min Rain = 0
KSW1 122239Z 16009KT 10/M11 A3018 RMK A01 T01021107  RH  022%=      5-min Rain = 0
KSW1 122240Z 16009KT 10/M11 A3018 RMK A01 T01011109  RH  022%=      5-min Rain = 0
KSW1 122241Z 16006KT 10/M11 A3018 RMK A01 T01011109  RH  022%=      5-min Rain = 0
KSW1 122242Z 15008KT 10/M11 A3018 RMK A01 T01001108  RH  022%=      5-min Rain = 0
KSW1 122243Z 16009KT 10/M11 A3018 RMK A01 T01011108  RH  022%=      5-min Rain = 0
KSW1 122244Z 16008KT 10/M11 A3018 RMK A01 T01011107  RH  022%=      5-min Rain = 0
KSW1 122245Z 16010KT 10/M11 A3018 RMK A01 T01021107  RH  022%=      5-min Rain = 0
KSW1 122246Z 16008KT 10/M11 A3018 RMK A01 T01011107  RH  022%=      5-min Rain = 0
KSW1 122247Z 16008KT 10/M11 A3018 RMK A01 T01011107  RH  022%=      5-min Rain = 0
KSW1 122248Z 17007KT 10/M11 A3018 RMK A01 T01011107  RH  022%=      5-min Rain = 0
KSW1 122249Z 15006KT 10/M11 A3018 RMK A01 T01011107  RH  022%=      5-min Rain = 0
KSW1 122250Z 16007KT 10/M11 A3018 RMK A01 T01001107  RH  022%=      5-min Rain = 0
KSW1 122251Z 17007KT 10/M11 A3018 RMK A01 T01001108  RH  022%=      5-min Rain = 0
KSW1 122252Z 17007KT 10/M11 A3018 RMK A01 T00991108  RH  022%=      5-min Rain = 0
KSW1 122253Z 15007KT 10/M11 A3018 RMK A01 T00991107  RH  022%=      5-min Rain = 0
KSW1 122254Z 14008KT 10/M11 A3018 RMK A01 T01001106  RH  022%=      5-min Rain = 0
KSW1 122255Z 14007KT 10/M11 A3018 RMK A01 T01011106  RH  022%=      5-min Rain = 0
KSW1 122256Z 14008KT 10/M11 A3018 RMK A01 T01011105  RH  022%=      5-min Rain = 0
KSW1 122257Z 15009KT 10/M11 A3018 RMK A01 T01011107  RH  022%=      5-min Rain = 0
KSW1 122258Z 15009KT 10/M11 A3018 RMK A01 T01001108  RH  022%=      5-min Rain = 0
KSW1 122259Z 15009KT 10/M11 A3018 RMK A01 T00991107  RH  022%=      5-min Rain = 0
KSW1 122300Z 14007KT 10/M11 A3018 RMK A01 T00981108  RH  022%=      5-min Rain = 0
KSW1 122301Z 14006KT 10/M11 A3018 RMK A01 T00981107  RH  022%=      5-min Rain = 0
KSW1 122302Z 14006KT 10/M11 A3018 RMK A01 T00981107  RH  022%=      5-min Rain = 0
KSW1 122303Z 15008KT 10/M11 A3018 RMK A01 T00981107  RH  023%=      5-min Rain = 0
KSW1 122304Z 16007KT 10/M11 A3018 RMK A01 T00981106  RH  023%=      5-min Rain = 0
KSW1 122305Z 16008KT 10/M11 A3018 RMK A01 T00991106  RH  022%=      5-min Rain = 0
KSW1 122306Z 16007KT 10/M11 A3018 RMK A01 T00981106  RH  022%=      5-min Rain = 0
KSW1 122307Z 16007KT 10/M11 A3018 RMK A01 T00981106  RH  023%=      5-min Rain = 0
KSW1 122308Z 16009KT 10/M11 A3018 RMK A01 T00971106  RH  023%=      5-min Rain = 0
KSW1 122309Z 16008KT 10/M11 A3018 RMK A01 T00971107  RH  023%=      5-min Rain = 0
KSW1 122310Z 16008KT 10/M11 A3018 RMK A01 T00971106  RH  023%=      5-min Rain = 0
KSW1 122311Z 16008KT 10/M11 A3018 RMK A01 T00971106  RH  023%=      5-min Rain = 0
KSW1 122312Z 15007KT 10/M11 A3018 RMK A01 T00961106  RH  023%=      5-min Rain = 0
KSW1 122313Z 15007KT 10/M11 A3018 RMK A01 T00961106  RH  023%=      5-min Rain = 0
KSW1 122314Z 14007KT 10/M11 A3018 RMK A01 T00961106  RH  023%=      5-min Rain = 0
KSW1 122315Z 15006KT 10/M11 A3018 RMK A01 T00961106  RH  023%=      5-min Rain = 0
KSW1 122316Z 14005KT 10/M11 A3018 RMK A01 T00961106  RH  023%=      5-min Rain = 0
KSW1 122317Z 15006KT 10/M11 A3018 RMK A01 T00961105  RH  023%=      5-min Rain = 0
KSW1 122318Z 15008KT 10/M11 A3018 RMK A01 T00961105  RH  023%=      5-min Rain = 0
KSW1 122319Z 15008KT 10/M11 A3018 RMK A01 T00951106  RH  023%=      5-min Rain = 0
KSW1 122320Z 15009KT 09/M11 A3018 RMK A01 T00941105  RH  023%=      5-min Rain = 0
KSW1 122321Z 15007KT 09/M11 A3018 RMK A01 T00941106  RH  023%=      5-min Rain = 0
KSW1 122322Z 15006KT 09/M11 A3019 RMK A01 T00931106  RH  023%=      5-min Rain = 0
KSW1 122323Z 15007KT 09/M11 A3018 RMK A01 T00931105  RH  024%=      5-min Rain = 0
KSW1 122324Z 16007KT 09/M11 A3018 RMK A01 T00921105  RH  024%=      5-min Rain = 0
KSW1 122325Z 15006KT 09/M11 A3019 RMK A01 T00921105  RH  024%=      5-min Rain = 0
KSW1 122326Z 15007KT 09/M11 A3019 RMK A01 T00921105  RH  024%=      5-min Rain = 0
KSW1 122327Z 14007KT 09/M11 A3019 RMK A01 T00911105  RH  024%=      5-min Rain = 0
KSW1 122328Z 15007KT 09/M11 A3019 RMK A01 T00911105  RH  024%=      5-min Rain = 0
KSW1 122329Z 14007KT 09/M11 A3019 RMK A01 T00901105  RH  024%=      5-min Rain = 0
KSW1 122330Z 14006KT 09/M11 A3019 RMK A01 T00901105  RH  024%=      5-min Rain = 0
KSW1 122331Z 14007KT 09/M11 A3019 RMK A01 T00891105  RH  024%=      5-min Rain = 0
KSW1 122332Z 13007KT 09/M11 A3019 RMK A01 T00891105  RH  024%=      5-min Rain = 0
KSW1 122333Z 13006KT 09/M11 A3019 RMK A01 T00881105  RH  024%=      5-min Rain = 0
KSW1 122334Z 13006KT 09/M11 A3019 RMK A01 T00871105  RH  024%=      5-min Rain = 0
KSW1 122335Z 13007KT 09/M11 A3019 RMK A01 T00861105  RH  025%=      5-min Rain = 0
KSW1 122336Z 13007KT 09/M11 A3019 RMK A01 T00851105  RH  025%=      5-min Rain = 0
KSW1 122337Z 13007KT 08/M11 A3019 RMK A01 T00841105  RH  025%=      5-min Rain = 0
KSW1 122338Z 14006KT 08/M11 A3019 RMK A01 T00841105  RH  025%=      5-min Rain = 0
KSW1 122339Z 14006KT 08/M11 A3019 RMK A01 T00831105  RH  025%=      5-min Rain = 0
KSW1 122340Z 13006KT 08/M11 A3019 RMK A01 T00821105  RH  025%=      5-min Rain = 0
KSW1 122341Z 14006KT 08/M11 A3019 RMK A01 T00821105  RH  025%=      5-min Rain = 0
KSW1 122342Z 14006KT 08/M11 A3019 RMK A01 T00811105  RH  026%=      5-min Rain = 0
KSW1 122343Z 14006KT 08/M11 A3019 RMK A01 T00801105  RH  026%=      5-min Rain = 0
KSW1 122344Z 13006KT 08/M11 A3019 RMK A01 T00791105  RH  026%=      5-min Rain = 0
KSW1 122345Z 13006KT 08/M11 A3019 RMK A01 T00781105  RH  026%=      5-min Rain = 0
KSW1 122346Z 13007KT 08/M11 A3018 RMK A01 T00771105  RH  026%=      5-min Rain = 0
KSW1 122347Z 13007KT 08/M11 A3018 RMK A01 T00761105  RH  026%=      5-min Rain = 0
KSW1 122348Z 13007KT 08/M11 A3018 RMK A01 T00751105  RH  027%=      5-min Rain = 0
KSW1 122349Z 12007KT 07/M11 A3018 RMK A01 T00741105  RH  027%=      5-min Rain = 0
KSW1 122350Z 12007KT 07/M11 A3018 RMK A01 T00731105  RH  027%=      5-min Rain = 0
KSW1 122351Z 12007KT 07/M11 A3019 RMK A01 T00721105  RH  027%=      5-min Rain = 0
KSW1 122352Z 12007KT 07/M11 A3019 RMK A01 T00711105  RH  027%=      5-min Rain = 0
KSW1 122353Z 12007KT 07/M11 A3019 RMK A01 T00701105  RH  027%=      5-min Rain = 0
KSW1 122354Z 12007KT 07/M11 A3019 RMK A01 T00691105  RH  028%=      5-min Rain = 0
KSW1 122355Z 12006KT 07/M11 A3019 RMK A01 T00691105  RH  028%=      5-min Rain = 0
KSW1 122356Z 13007KT 07/M11 A3019 RMK A01 T00671106  RH  028%=      5-min Rain = 0
KSW1 122357Z 12006KT 07/M11 A3019 RMK A01 T00661106  RH  028%=      5-min Rain = 0
KSW1 122358Z 12006KT 07/M11 A3019 RMK A01 T00651107  RH  028%=      5-min Rain = 0
KSW1 122359Z 11007KT 06/M11 A3019 RMK A01 T00641107  RH  028%=      5-min Rain = 0
KSW1 130000Z 11007KT 06/M11 A3019 RMK A01 T00621107  RH  029%=      5-min Rain = 0
KSW1 130001Z 11008KT 06/M11 A3019 RMK A01 T00601108  RH  029%=      5-min Rain = 0
KSW1 130002Z 11008KT 06/M11 A3019 RMK A01 T00591108  RH  029%=      5-min Rain = 0
KSW1 130003Z 11008KT 06/M11 A3019 RMK A01 T00581107  RH  029%=      5-min Rain = 0
KSW1 130004Z 11007KT 06/M11 A3019 RMK A01 T00571107  RH  030%=      5-min Rain = 0
KSW1 130005Z 11007KT 06/M11 A3019 RMK A01 T00561108  RH  030%=      5-min Rain = 0
KSW1 130006Z 11007KT 06/M11 A302 RMK A01 T00551108  RH  030%=      5-min Rain = 0
KSW1 130007Z 12007KT 05/M11 A302 RMK A01 T00541108  RH  030%=      5-min Rain = 0
KSW1 130008Z 12007KT 05/M11 A302 RMK A01 T00541107  RH  030%=      5-min Rain = 0
KSW1 130009Z 12007KT 05/M11 A302 RMK A01 T00541107  RH  030%=      5-min Rain = 0
KSW1 130010Z 12006KT 05/M11 A302 RMK A01 T00541107  RH  030%=      5-min Rain = 0
KSW1 130011Z 12007KT 05/M11 A302 RMK A01 T00531107  RH  030%=      5-min Rain = 0
KSW1 130012Z 12007KT 05/M11 A302 RMK A01 T00521107  RH  030%=      5-min Rain = 0
KSW1 130013Z 11007KT 05/M11 A302 RMK A01 T00511108  RH  031%=      5-min Rain = 0
KSW1 130014Z 11006KT 05/M11 A302 RMK A01 T00501108  RH  031%=      5-min Rain = 0
KSW1 130015Z 11006KT 05/M11 A302 RMK A01 T00491108  RH  031%=      5-min Rain = 0
KSW1 130016Z 10007KT 05/M11 A302 RMK A01 T00471109  RH  031%=      5-min Rain = 0
KSW1 130017Z 11007KT 04/M11 A302 RMK A01 T00441109  RH  032%=      5-min Rain = 0
KSW1 130018Z 11008KT 04/M11 A302 RMK A01 T00431109  RH  032%=      5-min Rain = 0
KSW1 130019Z 11008KT 04/M11 A302 RMK A01 T00431108  RH  032%=      5-min Rain = 0
KSW1 130020Z 11008KT 04/M11 A302 RMK A01 T00431108  RH  032%=      5-min Rain = 0
KSW1 130021Z 12008KT 04/M11 A302 RMK A01 T00431108  RH  032%=      5-min Rain = 0
KSW1 130022Z 12008KT 04/M11 A302 RMK A01 T00421108  RH  033%=      5-min Rain = 0
KSW1 130023Z 12007KT 04/M11 A302 RMK A01 T00421108  RH  033%=      5-min Rain = 0
KSW1 130024Z 12008KT 04/M11 A302 RMK A01 T00411108  RH  033%=      5-min Rain = 0
KSW1 130025Z 12007KT 04/M11 A302 RMK A01 T00401108  RH  033%=      5-min Rain = 0
KSW1 130026Z 12007KT 04/M11 A302 RMK A01 T00401108  RH  033%=      5-min Rain = 0
KSW1 130027Z 12007KT 04/M11 A302 RMK A01 T00401108  RH  033%=      5-min Rain = 0
KSW1 130028Z 12007KT 04/M11 A302 RMK A01 T00391108  RH  033%=      5-min Rain = 0
KSW1 130029Z 11007KT 04/M11 A302 RMK A01 T00381108  RH  033%=      5-min Rain = 0
KSW1 130030Z 11007KT 04/M11 A302 RMK A01 T00381108  RH  034%=      5-min Rain = 0
KSW1 130031Z 11007KT 04/M11 A302 RMK A01 T00371108  RH  034%=      5-min Rain = 0
KSW1 130032Z 11007KT 04/M11 A302 RMK A01 T00371108  RH  034%=      5-min Rain = 0
KSW1 130033Z 11007KT 04/M11 A302 RMK A01 T00361107  RH  034%=      5-min Rain = 0
KSW1 130034Z 11007KT 04/M11 A302 RMK A01 T00371107  RH  034%=      5-min Rain = 0
KSW1 130035Z 11007KT 04/M11 A302 RMK A01 T00361108  RH  034%=      5-min Rain = 0
KSW1 130036Z 11007KT 04/M11 A302 RMK A01 T00361107  RH  034%=      5-min Rain = 0
KSW1 130037Z 11007KT 04/M11 A302 RMK A01 T00361107  RH  034%=      5-min Rain = 0
KSW1 130038Z 12007KT 04/M11 A3021 RMK A01 T00361107  RH  034%=      5-min Rain = 0
KSW1 130039Z 11007KT 04/M11 A3021 RMK A01 T00371107  RH  034%=      5-min Rain = 0
KSW1 130040Z 11007KT 04/M11 A3021 RMK A01 T00381106  RH  034%=      5-min Rain = 0
KSW1 130041Z 11007KT 04/M11 A3021 RMK A01 T00381106  RH  034%=      5-min Rain = 0
KSW1 130042Z 11007KT 04/M11 A3021 RMK A01 T00371107  RH  034%=      5-min Rain = 0
KSW1 130043Z 11007KT 04/M11 A3021 RMK A01 T00361107  RH  034%=      5-min Rain = 0
KSW1 130044Z 11007KT 04/M11 A3021 RMK A01 T00361107  RH  034%=      5-min Rain = 0
KSW1 130045Z 11007KT 04/M11 A3021 RMK A01 T00361107  RH  034%=      5-min Rain = 0
KSW1 130046Z 11007KT 04/M11 A3021 RMK A01 T00361106  RH  035%=      5-min Rain = 0
KSW1 130047Z 11007KT 04/M11 A3021 RMK A01 T00361106  RH  035%=      5-min Rain = 0
KSW1 130048Z 11007KT 04/M11 A3021 RMK A01 T00361106  RH  035%=      5-min Rain = 0
KSW1 130049Z 11007KT 04/M11 A3021 RMK A01 T00371105  RH  035%=      5-min Rain = 0
KSW1 130050Z 11007KT 04/M11 A3021 RMK A01 T00361106  RH  035%=      5-min Rain = 0
KSW1 130051Z 11007KT 04/M11 A3021 RMK A01 T00361106  RH  035%=      5-min Rain = 0
KSW1 130052Z 11007KT 04/M11 A3021 RMK A01 T00361105  RH  035%=      5-min Rain = 0
KSW1 130053Z 11008KT 04/M11 A3021 RMK A01 T00361105  RH  035%=      5-min Rain = 0
KSW1 130054Z 11008KT 04/M11 A3021 RMK A01 T00351106  RH  035%=      5-min Rain = 0
KSW1 130055Z 10008KT 03/M11 A3021 RMK A01 T00341106  RH  035%=      5-min Rain = 0
KSW1 130056Z 10008KT 03/M11 A3021 RMK A01 T00341106  RH  035%=      5-min Rain = 0
KSW1 130057Z 10008KT 03/M11 A3021 RMK A01 T00331106  RH  035%=      5-min Rain = 0
KSW1 130058Z 10008KT 03/M11 A3022 RMK A01 T00331106  RH  035%=      5-min Rain = 0
KSW1 130059Z 10009KT 03/M11 A3022 RMK A01 T00321106  RH  035%=      5-min Rain = 0
KSW1 130100Z 10009KT 03/M11 A3022 RMK A01 T00321106  RH  036%=      5-min Rain = 0
KSW1 130101Z 10008KT 03/M11 A3022 RMK A01 T00321106  RH  036%=      5-min Rain = 0
KSW1 130102Z 10008KT 03/M11 A3022 RMK A01 T00321106  RH  036%=      5-min Rain = 0
KSW1 130103Z 10008KT 03/M11 A3022 RMK A01 T00321106  RH  036%=      5-min Rain = 0
KSW1 130104Z 10008KT 03/M11 A3022 RMK A01 T00321106  RH  036%=      5-min Rain = 0
KSW1 130105Z 10008KT 03/M11 A3022 RMK A01 T00321106  RH  036%=      5-min Rain = 0
KSW1 130106Z 10009KT 03/M11 A3022 RMK A01 T00311106  RH  036%=      5-min Rain = 0
KSW1 130107Z 10009KT 03/M11 A3022 RMK A01 T00311106  RH  036%=      5-min Rain = 0
KSW1 130108Z 10009KT 03/M11 A3022 RMK A01 T00311106  RH  036%=      5-min Rain = 0
KSW1 130109Z 10008KT 03/M11 A3022 RMK A01 T00311106  RH  036%=      5-min Rain = 0
KSW1 130110Z 10008KT 03/M11 A3022 RMK A01 T00311106  RH  036%=      5-min Rain = 0
KSW1 130111Z 10008KT 03/M11 A3022 RMK A01 T00311106  RH  036%=      5-min Rain = 0
KSW1 130112Z 10009KT 03/M11 A3022 RMK A01 T00321106  RH  036%=      5-min Rain = 0
KSW1 130113Z 10009KT 03/M11 A3022 RMK A01 T00321106  RH  036%=      5-min Rain = 0
KSW1 130114Z 10009KT 03/M11 A3022 RMK A01 T00321106  RH  036%=      5-min Rain = 0
KSW1 130115Z 10010KT 03/M11 A3022 RMK A01 T00321106  RH  036%=      5-min Rain = 0
KSW1 130116Z 10009KT 03/M11 A3022 RMK A01 T00331105  RH  035%=      5-min Rain = 0
KSW1 130117Z 10010KT 03/M11 A3022 RMK A01 T00331106  RH  035%=      5-min Rain = 0
KSW1 130118Z 09009KT 03/M11 A3023 RMK A01 T00341106  RH  035%=      5-min Rain = 0
KSW1 130119Z 09009KT 04/M11 A3023 RMK A01 T00351105  RH  035%=      5-min Rain = 0
KSW1 130120Z 09009KT 04/M11 A3023 RMK A01 T00351106  RH  035%=      5-min Rain = 0
KSW1 130121Z 09009KT 04/M11 A3023 RMK A01 T00351106  RH  035%=      5-min Rain = 0
KSW1 130122Z 09008KT 04/M11 A3023 RMK A01 T00351106  RH  035%=      5-min Rain = 0
KSW1 130123Z 09008KT 03/M11 A3023 RMK A01 T00341106  RH  035%=      5-min Rain = 0
KSW1 130124Z 10009KT 03/M11 A3023 RMK A01 T00341106  RH  035%=      5-min Rain = 0
KSW1 130125Z 10009KT 03/M11 A3023 RMK A01 T00331106  RH  035%=      5-min Rain = 0
KSW1 130126Z 10009KT 03/M11 A3023 RMK A01 T00341106  RH  035%=      5-min Rain = 0
KSW1 130127Z 09009KT 03/M11 A3023 RMK A01 T00331106  RH  035%=      5-min Rain = 0
KSW1 130128Z 09009KT 03/M11 A3023 RMK A01 T00341106  RH  035%=      5-min Rain = 0
KSW1 130129Z 09009KT 03/M11 A3023 RMK A01 T00331106  RH  035%=      5-min Rain = 0
KSW1 130130Z 09009KT 03/M11 A3023 RMK A01 T00321106  RH  035%=      5-min Rain = 0
KSW1 130131Z 10009KT 03/M11 A3023 RMK A01 T00321106  RH  036%=      5-min Rain = 0
KSW1 130132Z 10009KT 03/M11 A3023 RMK A01 T00321106  RH  036%=      5-min Rain = 0
KSW1 130133Z 10009KT 03/M11 A3023 RMK A01 T00321106  RH  035%=      5-min Rain = 0
KSW1 130134Z 10009KT 03/M11 A3023 RMK A01 T00331106  RH  035%=      5-min Rain = 0
KSW1 130135Z 10010KT 03/M11 A3023 RMK A01 T00341106  RH  035%=      5-min Rain = 0
KSW1 130136Z 09009KT 03/M11 A3023 RMK A01 T00341107  RH  035%=      5-min Rain = 0
KSW1 130137Z 10010KT 04/M11 A3023 RMK A01 T00351106  RH  035%=      5-min Rain = 0
KSW1 130138Z 09010KT 04/M11 A3023 RMK A01 T00351107  RH  035%=      5-min Rain = 0
KSW1 130139Z 09009KT 04/M11 A3023 RMK A01 T00351107  RH  035%=      5-min Rain = 0
KSW1 130140Z 09009KT 03/M11 A3023 RMK A01 T00341108  RH  035%=      5-min Rain = 0
KSW1 130141Z 09009KT 03/M11 A3023 RMK A01 T00341107  RH  035%=      5-min Rain = 0
KSW1 130142Z 09009KT 03/M11 A3023 RMK A01 T00331108  RH  035%=      5-min Rain = 0
KSW1 130143Z 10009KT 03/M11 A3023 RMK A01 T00331108  RH  035%=      5-min Rain = 0
KSW1 130144Z 10010KT 03/M11 A3023 RMK A01 T00331107  RH  035%=      5-min Rain = 0
KSW1 130145Z 10010KT 03/M11 A3023 RMK A01 T00341107  RH  035%=      5-min Rain = 0
KSW1 130146Z 10010KT 03/M11 A3023 RMK A01 T00341107  RH  035%=      5-min Rain = 0
KSW1 130147Z 10009KT 03/M11 A3023 RMK A01 T00341107  RH  035%=      5-min Rain = 0
KSW1 130148Z 09009KT 03/M11 A3023 RMK A01 T00341107  RH  035%=      5-min Rain = 0
KSW1 130149Z 09009KT 03/M11 A3023 RMK A01 T00341107  RH  035%=      5-min Rain = 0
KSW1 130150Z 09009KT 03/M11 A3023 RMK A01 T00341107  RH  035%=      5-min Rain = 0
KSW1 130151Z 10010KT 03/M11 A3024 RMK A01 T00331107  RH  035%=      5-min Rain = 0
KSW1 130152Z 09009KT 03/M11 A3024 RMK A01 T00341107  RH  035%=      5-min Rain = 0
KSW1 130153Z 09009KT 03/M11 A3024 RMK A01 T00341107  RH  035%=      5-min Rain = 0
KSW1 130154Z 09009KT 03/M11 A3024 RMK A01 T00341107  RH  035%=      5-min Rain = 0
KSW1 130155Z 09009KT 03/M11 A3024 RMK A01 T00341107  RH  035%=      5-min Rain = 0
KSW1 130156Z 09009KT 03/M11 A3024 RMK A01 T00341107  RH  035%=      5-min Rain = 0
KSW1 130157Z 09009KT 04/M11 A3024 RMK A01 T00351107  RH  035%=      5-min Rain = 0
KSW1 130158Z 09009KT 03/M11 A3024 RMK A01 T00341107  RH  035%=      5-min Rain = 0
KSW1 130159Z 09009KT 04/M11 A3024 RMK A01 T00351107  RH  035%=      5-min Rain = 0
KSW1 130200Z 09009KT 04/M11 A3024 RMK A01 T00351107  RH  034%=      5-min Rain = 0
KSW1 130201Z 09010KT 04/M11 A3024 RMK A01 T00361107  RH  034%=      5-min Rain = 0
KSW1 130202Z 09009KT 04/M11 A3024 RMK A01 T00371107  RH  034%=      5-min Rain = 0
KSW1 130203Z 09009KT 04/M11 A3024 RMK A01 T00381107  RH  034%=      5-min Rain = 0
KSW1 130204Z 09009KT 04/M11 A3025 RMK A01 T00381107  RH  034%=      5-min Rain = 0
KSW1 130205Z 09009KT 04/M11 A3025 RMK A01 T00381107  RH  034%=      5-min Rain = 0
KSW1 130206Z 09009KT 04/M11 A3025 RMK A01 T00371107  RH  034%=      5-min Rain = 0
KSW1 130207Z 09008KT 04/M11 A3025 RMK A01 T00361108  RH  034%=      5-min Rain = 0
KSW1 130208Z 07007KT 04/M11 A3025 RMK A01 T00351108  RH  034%=      5-min Rain = 0
KSW1 130209Z 06008KT 03/M11 A3025 RMK A01 T00321108  RH  035%=      5-min Rain = 0
KSW1 130210Z 08009KT 03/M11 A3025 RMK A01 T00291108  RH  036%=      5-min Rain = 0
KSW1 130211Z 08009KT 03/M11 A3025 RMK A01 T00271108  RH  036%=      5-min Rain = 0
KSW1 130212Z 07009KT 03/M11 A3025 RMK A01 T00261108  RH  037%=      5-min Rain = 0
KSW1 130213Z 07009KT 03/M11 A3026 RMK A01 T00251108  RH  037%=      5-min Rain = 0
KSW1 130214Z 06009KT 03/M11 A3026 RMK A01 T00251108  RH  037%=      5-min Rain = 0
KSW1 130215Z 05009KT 03/M11 A3026 RMK A01 T00251107  RH  037%=      5-min Rain = 0
KSW1 130216Z 06010KT 02/M11 A3026 RMK A01 T00241107  RH  037%=      5-min Rain = 0
KSW1 130217Z 06010KT 02/M11 A3026 RMK A01 T00241107  RH  037%=      5-min Rain = 0
KSW1 130218Z 06009KT 03/M11 A3026 RMK A01 T00251106  RH  038%=      5-min Rain = 0
KSW1 130219Z 06010KT 03/M11 A3026 RMK A01 T00251105  RH  038%=      5-min Rain = 0
KSW1 130220Z 06009KT 03/M11 A3026 RMK A01 T00261105  RH  038%=      5-min Rain = 0
KSW1 130221Z 06008KT 03/M11 A3026 RMK A01 T00251105  RH  038%=      5-min Rain = 0
KSW1 130222Z 07008KT 02/M11 A3026 RMK A01 T00241105  RH  038%=      5-min Rain = 0
KSW1 130223Z 07007KT 02/M11 A3026 RMK A01 T00241105  RH  038%=      5-min Rain = 0
KSW1 130224Z 06007KT 02/M11 A3026 RMK A01 T00231106  RH  038%=      5-min Rain = 0
KSW1 130225Z 06007KT 02/M11 A3026 RMK A01 T00221106  RH  038%=      5-min Rain = 0
KSW1 130226Z 06008KT 02/M11 A3026 RMK A01 T00211106  RH  039%=      5-min Rain = 0
KSW1 130227Z 06008KT 02/M11 A3026 RMK A01 T00201106  RH  039%=      5-min Rain = 0
KSW1 130228Z 06008KT 02/M11 A3027 RMK A01 T00181106  RH  039%=      5-min Rain = 0
KSW1 130229Z 05008KT 02/M11 A3027 RMK A01 T00181106  RH  039%=      5-min Rain = 0
KSW1 130230Z 06009KT 02/M11 A3027 RMK A01 T00171106  RH  040%=      5-min Rain = 0
KSW1 130231Z 06009KT 02/M11 A3027 RMK A01 T00171106  RH  040%=      5-min Rain = 0
KSW1 130232Z 07009KT 02/M11 A3027 RMK A01 T00171106  RH  040%=      5-min Rain = 0
KSW1 130233Z 07008KT 02/M11 A3027 RMK A01 T00181106  RH  040%=      5-min Rain = 0
KSW1 130234Z 07007KT 02/M11 A3027 RMK A01 T00181106  RH  039%=      5-min Rain = 0
KSW1 130235Z 07007KT 02/M11 A3027 RMK A01 T00191105  RH  039%=      5-min Rain = 0
KSW1 130236Z 07008KT 02/M11 A3027 RMK A01 T00181105  RH  039%=      5-min Rain = 0
KSW1 130237Z 07007KT 02/M11 A3027 RMK A01 T00191105  RH  039%=      5-min Rain = 0
KSW1 130238Z 07008KT 02/M11 A3027 RMK A01 T00191105  RH  039%=      5-min Rain = 0
KSW1 130239Z 08007KT 02/M11 A3027 RMK A01 T00181105  RH  040%=      5-min Rain = 0
KSW1 130240Z 08008KT 02/M11 A3027 RMK A01 T00181105  RH  040%=      5-min Rain = 0
KSW1 130241Z 08008KT 02/M11 A3027 RMK A01 T00171105  RH  040%=      5-min Rain = 0
KSW1 130242Z 07008KT 02/M11 A3027 RMK A01 T00171105  RH  040%=      5-min Rain = 0
KSW1 130243Z 07009KT 02/M11 A3027 RMK A01 T00171105  RH  040%=      5-min Rain = 0
KSW1 130244Z 07009KT 02/M11 A3027 RMK A01 T00171105  RH  040%=      5-min Rain = 0
KSW1 130245Z 07009KT 02/M11 A3027 RMK A01 T00171105  RH  040%=      5-min Rain = 0
KSW1 130246Z 07009KT 02/M11 A3027 RMK A01 T00171105  RH  040%=      5-min Rain = 0
KSW1 130247Z 06010KT 02/M11 A3027 RMK A01 T00161105  RH  040%=      5-min Rain = 0
KSW1 130248Z 06010KT 02/M11 A3027 RMK A01 T00151105  RH  040%=      5-min Rain = 0
KSW1 130249Z 06010KT 02/M11 A3027 RMK A01 T00151105  RH  040%=      5-min Rain = 0
KSW1 130250Z 05009KT 01/M11 A3028 RMK A01 T00141106  RH  041%=      5-min Rain = 0
KSW1 130251Z 05010KT 01/M11 A3028 RMK A01 T00141105  RH  041%=      5-min Rain = 0
KSW1 130252Z 05011KT 01/M11 A3028 RMK A01 T00131106  RH  041%=      5-min Rain = 0
KSW1 130253Z 05011KT 01/M11 A3028 RMK A01 T00121105  RH  041%=      5-min Rain = 0
KSW1 130254Z 05010KT 01/M11 A3028 RMK A01 T00121105  RH  041%=      5-min Rain = 0
KSW1 130255Z 06010KT 01/M11 A3028 RMK A01 T00121105  RH  041%=      5-min Rain = 0
KSW1 130256Z 06010KT 01/M11 A3028 RMK A01 T00111105  RH  042%=      5-min Rain = 0
KSW1 130257Z 06009KT 01/M11 A3028 RMK A01 T00111105  RH  042%=      5-min Rain = 0
KSW1 130258Z 07009KT 01/M11 A3028 RMK A01 T00111106  RH  042%=      5-min Rain = 0
KSW1 130259Z 07009KT 01/M11 A3028 RMK A01 T00111106  RH  041%=      5-min Rain = 0
KSW1 130300Z 07009KT 01/M11 A3028 RMK A01 T00121105  RH  041%=      5-min Rain = 0
KSW1 130301Z 07009KT 01/M11 A3028 RMK A01 T00121105  RH  041%=      5-min Rain = 0
KSW1 130302Z 07008KT 01/M11 A3028 RMK A01 T00121106  RH  041%=      5-min Rain = 0
KSW1 130303Z 07008KT 01/M11 A3028 RMK A01 T00121105  RH  041%=      5-min Rain = 0
KSW1 130304Z 07007KT 01/M11 A3028 RMK A01 T00121105  RH  041%=      5-min Rain = 0
KSW1 130305Z 08008KT 01/M11 A3028 RMK A01 T00111105  RH  041%=      5-min Rain = 0
KSW1 130306Z 07008KT 01/M11 A3028 RMK A01 T00111105  RH  042%=      5-min Rain = 0
KSW1 130307Z 07008KT 01/M11 A3028 RMK A01 T00101105  RH  042%=      5-min Rain = 0
KSW1 130308Z 07008KT 01/M11 A3028 RMK A01 T00101105  RH  042%=      5-min Rain = 0
KSW1 130309Z 07009KT 01/M11 A3028 RMK A01 T00101105  RH  042%=      5-min Rain = 0
KSW1 130310Z 06009KT 01/M11 A3029 RMK A01 T00101105  RH  042%=      5-min Rain = 0
KSW1 130311Z 06010KT 01/M11 A3029 RMK A01 T00101105  RH  042%=      5-min Rain = 0
KSW1 130312Z 07009KT 01/M10 A3029 RMK A01 T00101104  RH  042%=      5-min Rain = 0
KSW1 130313Z 07009KT 01/M11 A3029 RMK A01 T00091105  RH  042%=      5-min Rain = 0
KSW1 130314Z 07009KT 01/M11 A3029 RMK A01 T00091105  RH  042%=      5-min Rain = 0
KSW1 130315Z 07009KT 01/M11 A3029 RMK A01 T00091105  RH  042%=      5-min Rain = 0
KSW1 130316Z 07009KT 01/M11 A3029 RMK A01 T00091105  RH  042%=      5-min Rain = 0
KSW1 130317Z 08010KT 01/M11 A3029 RMK A01 T00091105  RH  042%=      5-min Rain = 0
KSW1 130318Z 07009KT 01/M11 A3029 RMK A01 T00101105  RH  042%=      5-min Rain = 0
KSW1 130319Z 07009KT 01/M11 A3029 RMK A01 T00101105  RH  042%=      5-min Rain = 0
KSW1 130320Z 07009KT 01/M11 A3029 RMK A01 T00101105  RH  042%=      5-min Rain = 0
KSW1 130321Z 07009KT 01/M11 A3029 RMK A01 T00091106  RH  042%=      5-min Rain = 0
KSW1 130322Z 07009KT 01/M11 A3029 RMK A01 T00091106  RH  042%=      5-min Rain = 0
KSW1 130323Z 07009KT 01/M11 A3029 RMK A01 T00091106  RH  042%=      5-min Rain = 0
KSW1 130324Z 07009KT 01/M11 A3029 RMK A01 T00091106  RH  042%=      5-min Rain = 0
KSW1 130325Z 06009KT 01/M11 A303 RMK A01 T00091106  RH  042%=      5-min Rain = 0
KSW1 130326Z 06009KT 01/M11 A303 RMK A01 T00081106  RH  042%=      5-min Rain = 0
KSW1 130327Z 06009KT 01/M11 A303 RMK A01 T00081106  RH  042%=      5-min Rain = 0
KSW1 130328Z 06009KT 01/M11 A303 RMK A01 T00081106  RH  043%=      5-min Rain = 0
KSW1 130329Z 06009KT 01/M11 A303 RMK A01 T00081105  RH  043%=      5-min Rain = 0
KSW1 130330Z 06009KT 01/M11 A303 RMK A01 T00081106  RH  042%=      5-min Rain = 0
KSW1 130331Z 06010KT 01/M11 A303 RMK A01 T00081106  RH  042%=      5-min Rain = 0
KSW1 130332Z 06010KT 01/M11 A303 RMK A01 T00081106  RH  042%=      5-min Rain = 0
KSW1 130333Z 06009KT 01/M11 A303 RMK A01 T00081106  RH  042%=      5-min Rain = 0
KSW1 130334Z 06009KT 01/M11 A303 RMK A01 T00081106  RH  042%=      5-min Rain = 0
KSW1 130335Z 06009KT 01/M11 A303 RMK A01 T00081106  RH  042%=      5-min Rain = 0
KSW1 130336Z 06009KT 01/M11 A303 RMK A01 T00081107  RH  042%=      5-min Rain = 0
KSW1 130337Z 06009KT 01/M11 A303 RMK A01 T00081107  RH  042%=      5-min Rain = 0
KSW1 130338Z 06009KT 01/M11 A303 RMK A01 T00081107  RH  042%=      5-min Rain = 0
KSW1 130339Z 06009KT 01/M11 A3031 RMK A01 T00081107  RH  042%=      5-min Rain = 0
KSW1 130340Z 06010KT 01/M11 A3031 RMK A01 T00071107  RH  042%=      5-min Rain = 0
KSW1 130341Z 05010KT 01/M11 A3031 RMK A01 T00071108  RH  042%=      5-min Rain = 0
KSW1 130342Z 05011KT 01/M11 A3031 RMK A01 T00071108  RH  042%=      5-min Rain = 0
KSW1 130343Z 05010KT 01/M11 A3031 RMK A01 T00071108  RH  042%=      5-min Rain = 0
KSW1 130344Z 05011KT 01/M11 A3032 RMK A01 T00061108  RH  042%=      5-min Rain = 0
KSW1 130345Z 05011KT 01/M11 A3032 RMK A01 T00061108  RH  042%=      5-min Rain = 0
KSW1 130346Z 05011KT 01/M11 A3032 RMK A01 T00071108  RH  042%=      5-min Rain = 0
KSW1 130347Z 05011KT 01/M11 A3032 RMK A01 T00071109  RH  042%=      5-min Rain = 0
KSW1 130348Z 05012KT 01/M11 A3032 RMK A01 T00081109  RH  041%=      5-min Rain = 0
KSW1 130349Z 05011KT 01/M11 A3032 RMK A01 T00091109  RH  041%=      5-min Rain = 0
KSW1 130350Z 05010KT 01/M11 A3032 RMK A01 T00091109  RH  041%=      5-min Rain = 0
KSW1 130351Z 05011KT 01/M11 A3032 RMK A01 T00091109  RH  041%=      5-min Rain = 0
KSW1 130352Z 05011KT 01/M11 A3032 RMK A01 T00081110  RH  041%=      5-min Rain = 0
KSW1 130353Z 06011KT 01/M11 A3032 RMK A01 T00081110  RH  041%=      5-min Rain = 0
KSW1 130354Z 05012KT 01/M11 A3032 RMK A01 T00081110  RH  041%=      5-min Rain = 0
KSW1 130355Z 05011KT 01/M11 A3032 RMK A01 T00071110  RH  041%=      5-min Rain = 0
KSW1 130356Z 05011KT 01/M11 A3032 RMK A01 T00071110  RH  041%=      5-min Rain = 0
KSW1 130357Z 05012KT 01/M11 A3032 RMK A01 T00071110  RH  041%=      5-min Rain = 0
KSW1 130358Z 05012KT 01/M11 A3032 RMK A01 T00061110  RH  041%=      5-min Rain = 0
KSW1 130359Z 05010KT 01/M11 A3032 RMK A01 T00061110  RH  041%=      5-min Rain = 0
KSW1 130400Z 06011KT 01/M11 A3032 RMK A01 T00051111  RH  041%=      5-min Rain = 0
KSW1 130401Z 05011KT 01/M11 A3032 RMK A01 T00051111  RH  042%=      5-min Rain = 0
KSW1 130402Z 06012KT 01/M11 A3032 RMK A01 T00051111  RH  042%=      5-min Rain = 0
KSW1 130403Z 06011KT 01/M11 A3033 RMK A01 T00051111  RH  042%=      5-min Rain = 0
KSW1 130404Z 06011KT 01/M11 A3033 RMK A01 T00051111  RH  042%=      5-min Rain = 0
KSW1 130405Z 06011KT 01/M11 A3033 RMK A01 T00051111  RH  041%=      5-min Rain = 0
KSW1 130406Z 06011KT 01/M11 A3033 RMK A01 T00051111  RH  041%=      5-min Rain = 0
KSW1 130407Z 06011KT 01/M11 A3033 RMK A01 T00051111  RH  041%=      5-min Rain = 0
KSW1 130408Z 06011KT 01/M11 A3033 RMK A01 T00051111  RH  041%=      5-min Rain = 0
KSW1 130409Z 06011KT 01/M11 A3033 RMK A01 T00051112  RH  041%=      5-min Rain = 0
KSW1 130410Z 06011KT 01/M11 A3033 RMK A01 T00051111  RH  041%=      5-min Rain = 0
KSW1 130411Z 06011KT 01/M11 A3033 RMK A01 T00051112  RH  041%=      5-min Rain = 0
KSW1 130412Z 06010KT 01/M11 A3033 RMK A01 T00051112  RH  041%=      5-min Rain = 0
KSW1 130413Z 06012KT 01/M11 A3033 RMK A01 T00051112  RH  041%=      5-min Rain = 0
KSW1 130414Z 06010KT 01/M11 A3033 RMK A01 T00051112  RH  041%=      5-min Rain = 0
KSW1 130415Z 06011KT 01/M11 A3033 RMK A01 T00051112  RH  041%=      5-min Rain = 0
KSW1 130416Z 06010KT 01/M11 A3033 RMK A01 T00051112  RH  041%=      5-min Rain = 0
KSW1 130417Z 06012KT 01/M11 A3033 RMK A01 T00051112  RH  041%=      5-min Rain = 0
KSW1 130418Z 06011KT 01/M11 A3033 RMK A01 T00051113  RH  041%=      5-min Rain = 0
KSW1 130419Z 06012KT 01/M11 A3033 RMK A01 T00051112  RH  041%=      5-min Rain = 0
KSW1 130420Z 07010KT 01/M11 A3033 RMK A01 T00051113  RH  041%=      5-min Rain = 0
KSW1 130421Z 07011KT 01/M11 A3033 RMK A01 T00051113  RH  041%=      5-min Rain = 0
KSW1 130422Z 07010KT 01/M11 A3033 RMK A01 T00051113  RH  041%=      5-min Rain = 0
KSW1 130423Z 07010KT 01/M11 A3033 RMK A01 T00051113  RH  041%=      5-min Rain = 0
KSW1 130424Z 07010KT 00/M11 A3033 RMK A01 T00041113  RH  041%=      5-min Rain = 0
KSW1 130425Z 07009KT 00/M11 A3033 RMK A01 T00041113  RH  041%=      5-min Rain = 0
KSW1 130426Z 07010KT 00/M11 A3033 RMK A01 T00031113  RH  041%=      5-min Rain = 0
KSW1 130427Z 07011KT 00/M11 A3033 RMK A01 T00031114  RH  041%=      5-min Rain = 0
KSW1 130428Z 06010KT 00/M11 A3033 RMK A01 T00031113  RH  041%=      5-min Rain = 0
KSW1 130429Z 06011KT 00/M11 A3034 RMK A01 T00031113  RH  041%=      5-min Rain = 0
KSW1 130430Z 06011KT 00/M11 A3034 RMK A01 T00021113  RH  042%=      5-min Rain = 0
KSW1 130431Z 06010KT 00/M11 A3034 RMK A01 T00011114  RH  042%=      5-min Rain = 0
KSW1 130432Z 06011KT 00/M11 A3034 RMK A01 T00011114  RH  042%=      5-min Rain = 0
KSW1 130433Z 06009KT 00/11 A3034 RMK A01 T00000-114  RH  042%=      5-min Rain = 0
KSW1 130434Z 07010KT 00/11 A3034 RMK A01 T00-00-114  RH  042%=      5-min Rain = 0
KSW1 130435Z 07008KT 00/11 A3034 RMK A01 T00-00-114  RH  042%=      5-min Rain = 0
KSW1 130436Z 07009KT 00/11 A3034 RMK A01 T00-00-113  RH  042%=      5-min Rain = 0
KSW1 130437Z 06009KT 00/11 A3034 RMK A01 T00-00-114  RH  042%=      5-min Rain = 0
KSW1 130438Z 06009KT 00/11 A3034 RMK A01 T00-00-114  RH  042%=      5-min Rain = 0
KSW1 130439Z 07009KT M00/M11 A3034 RMK A01 T10011114  RH  042%=      5-min Rain = 0
KSW1 130440Z 07009KT M00/M12 A3034 RMK A01 T10021115  RH  042%=      5-min Rain = 0
KSW1 130441Z 07010KT M00/M11 A3034 RMK A01 T10021114  RH  042%=      5-min Rain = 0
KSW1 130442Z 06009KT M00/M11 A3034 RMK A01 T10021114  RH  042%=      5-min Rain = 0
KSW1 130443Z 06010KT M00/M11 A3034 RMK A01 T10021114  RH  042%=      5-min Rain = 0
KSW1 130444Z 06009KT M00/M11 A3034 RMK A01 T10021114  RH  042%=      5-min Rain = 0
KSW1 130445Z 05010KT M00/M12 A3035 RMK A01 T10021115  RH  042%=      5-min Rain = 0
KSW1 130446Z 05010KT M00/M12 A3035 RMK A01 T10031115  RH  043%=      5-min Rain = 0
KSW1 130447Z 05009KT M00/M12 A3035 RMK A01 T10031115  RH  043%=      5-min Rain = 0
KSW1 130448Z 06008KT M00/M12 A3035 RMK A01 T10041115  RH  043%=      5-min Rain = 0
KSW1 130449Z 06008KT M00/M12 A3035 RMK A01 T10041115  RH  043%=      5-min Rain = 0
KSW1 130450Z 06008KT M00/M12 A3034 RMK A01 T10041115  RH  043%=      5-min Rain = 0
KSW1 130451Z 07008KT M01/M12 A3034 RMK A01 T10051115  RH  043%=      5-min Rain = 0
KSW1 130452Z 06008KT M01/M12 A3035 RMK A01 T10051116  RH  043%=      5-min Rain = 0
KSW1 130453Z 06009KT M01/M12 A3035 RMK A01 T10061116  RH  043%=      5-min Rain = 0
KSW1 130454Z 05010KT M01/M12 A3035 RMK A01 T10061116  RH  043%=      5-min Rain = 0
KSW1 130455Z 05011KT M01/M12 A3035 RMK A01 T10071116  RH  043%=      5-min Rain = 0
KSW1 130456Z 05011KT M01/M12 A3035 RMK A01 T10071116  RH  044%=      5-min Rain = 0
KSW1 130457Z 05009KT M01/M12 A3035 RMK A01 T10081116  RH  044%=      5-min Rain = 0
KSW1 130458Z 05010KT M01/M12 A3035 RMK A01 T10081115  RH  044%=      5-min Rain = 0
KSW1 130459Z 05010KT M01/M12 A3035 RMK A01 T10081115  RH  044%=      5-min Rain = 0
KSW1 130500Z 05009KT M01/M12 A3035 RMK A01 T10091115  RH  045%=      5-min Rain = 0
KSW1 130501Z 05010KT M01/M12 A3035 RMK A01 T10091115  RH  045%=      5-min Rain = 0
KSW1 130502Z 05011KT M01/M12 A3035 RMK A01 T10101115  RH  045%=      5-min Rain = 0
KSW1 130503Z 05010KT M01/M12 A3036 RMK A01 T10101115  RH  045%=      5-min Rain = 0
KSW1 130504Z 04011KT M01/M12 A3036 RMK A01 T10111115  RH  045%=      5-min Rain = 0
KSW1 130505Z 04011KT M01/M12 A3036 RMK A01 T10121115  RH  045%=      5-min Rain = 0
KSW1 130506Z 05011KT M01/M12 A3036 RMK A01 T10121115  RH  046%=      5-min Rain = 0
KSW1 130507Z 04011KT M01/M11 A3036 RMK A01 T10121114  RH  046%=      5-min Rain = 0
KSW1 130508Z 04010KT M01/M11 A3036 RMK A01 T10131114  RH  046%=      5-min Rain = 0
KSW1 130509Z 05011KT M01/M11 A3036 RMK A01 T10131114  RH  046%=      5-min Rain = 0
KSW1 130510Z 05012KT M01/M11 A3036 RMK A01 T10141114  RH  046%=      5-min Rain = 0
KSW1 130511Z 05012KT M01/M11 A3036 RMK A01 T10141114  RH  046%=      5-min Rain = 0
KSW1 130512Z 05011KT M01/M11 A3036 RMK A01 T10141114  RH  046%=      5-min Rain = 0
KSW1 130513Z 04012KT M01/M11 A3036 RMK A01 T10141114  RH  046%=      5-min Rain = 0
KSW1 130514Z 04013KT M01/M11 A3036 RMK A01 T10141114  RH  047%=      5-min Rain = 0
KSW1 130515Z 04012KT M01/M11 A3036 RMK A01 T10141114  RH  047%=      5-min Rain = 0
KSW1 130516Z 05011KT M01/M11 A3036 RMK A01 T10141114  RH  047%=      5-min Rain = 0
KSW1 130517Z 05011KT M01/M11 A3036 RMK A01 T10141114  RH  047%=      5-min Rain = 0
KSW1 130518Z 05011KT M02/M11 A3036 RMK A01 T10151114  RH  047%=      5-min Rain = 0
KSW1 130519Z 05011KT M02/M11 A3036 RMK A01 T10151114  RH  047%=      5-min Rain = 0
KSW1 130520Z 05012KT M02/M11 A3036 RMK A01 T10151114  RH  047%=      5-min Rain = 0
KSW1 130521Z 05011KT M02/M11 A3036 RMK A01 T10151114  RH  047%=      5-min Rain = 0
KSW1 130522Z 05011KT M02/M11 A3036 RMK A01 T10151114  RH  047%=      5-min Rain = 0
KSW1 130523Z 05011KT M02/M11 A3036 RMK A01 T10161114  RH  047%=      5-min Rain = 0
KSW1 130524Z 05011KT M02/M11 A3037 RMK A01 T10171114  RH  047%=      5-min Rain = 0
KSW1 130525Z 04010KT M02/M11 A3037 RMK A01 T10171114  RH  047%=      5-min Rain = 0
KSW1 130526Z 04011KT M02/M11 A3037 RMK A01 T10171114  RH  048%=      5-min Rain = 0
KSW1 130527Z 04011KT M02/M11 A3037 RMK A01 T10171114  RH  048%=      5-min Rain = 0
KSW1 130528Z 03012KT M02/M11 A3038 RMK A01 T10171114  RH  048%=      5-min Rain = 0
KSW1 130529Z 03012KT M02/M11 A3038 RMK A01 T10171114  RH  048%=      5-min Rain = 0
KSW1 130530Z 04012KT M02/M11 A3038 RMK A01 T10171114  RH  048%=      5-min Rain = 0
KSW1 130531Z 03011KT M02/M11 A3038 RMK A01 T10181114  RH  048%=      5-min Rain = 0
KSW1 130532Z 03012KT M02/M11 A3038 RMK A01 T10181114  RH  048%=      5-min Rain = 0
KSW1 130533Z 04011KT M02/M11 A3038 RMK A01 T10181114  RH  048%=      5-min Rain = 0
KSW1 130534Z 03012KT M02/M11 A3038 RMK A01 T10181114  RH  048%=      5-min Rain = 0
KSW1 130535Z 03013KT M02/M11 A3038 RMK A01 T10191114  RH  048%=      5-min Rain = 0
KSW1 130536Z 03015KT M02/M11 A3038 RMK A01 T10191114  RH  048%=      5-min Rain = 0
KSW1 130537Z 03012KT M02/M11 A3039 RMK A01 T10181114  RH  048%=      5-min Rain = 0
KSW1 130538Z 03013KT M02/M11 A3039 RMK A01 T10181114  RH  048%=      5-min Rain = 0
KSW1 130539Z 03012KT M02/M11 A3039 RMK A01 T10181114  RH  048%=      5-min Rain = 0
KSW1 130540Z 04012KT M02/M12 A3039 RMK A01 T10191115  RH  048%=      5-min Rain = 0
KSW1 130541Z 03012KT M02/M12 A3039 RMK A01 T10191115  RH  048%=      5-min Rain = 0
KSW1 130542Z 04012KT M02/M12 A3039 RMK A01 T10191115  RH  048%=      5-min Rain = 0
KSW1 130543Z 03012KT M02/M12 A3039 RMK A01 T10191115  RH  048%=      5-min Rain = 0
KSW1 130544Z 04013KT M02/M12 A3039 RMK A01 T10191115  RH  048%=      5-min Rain = 0
KSW1 130545Z 04014KT M02/M12 A3039 RMK A01 T10191115  RH  048%=      5-min Rain = 0
KSW1 130546Z 03013KT M02/M12 A3039 RMK A01 T10191116  RH  047%=      5-min Rain = 0
KSW1 130547Z 04012KT M02/M12 A3039 RMK A01 T10191116  RH  047%=      5-min Rain = 0
KSW1 130548Z 04013KT M02/M12 A3039 RMK A01 T10201117  RH  047%=      5-min Rain = 0
KSW1 130549Z 04012KT M02/M12 A3039 RMK A01 T10201117  RH  047%=      5-min Rain = 0
KSW1 130550Z 04012KT M02/M12 A3039 RMK A01 T10191117  RH  047%=      5-min Rain = 0
KSW1 130551Z 04013KT M02/M12 A3039 RMK A01 T10201117  RH  047%=      5-min Rain = 0
KSW1 130552Z 04013KT M02/M12 A3039 RMK A01 T10201117  RH  047%=      5-min Rain = 0
KSW1 130553Z 04013KT M02/M12 A3039 RMK A01 T10201118  RH  047%=      5-min Rain = 0
KSW1 130554Z 04014KT M02/M12 A3039 RMK A01 T10201118  RH  047%=      5-min Rain = 0
KSW1 130555Z 04014KT M02/M12 A3039 RMK A01 T10201118  RH  047%=      5-min Rain = 0
KSW1 130556Z 04014KT M02/M12 A3039 RMK A01 T10191118  RH  047%=      5-min Rain = 0
KSW1 130557Z 04012KT M02/M12 A3039 RMK A01 T10191118  RH  047%=      5-min Rain = 0
KSW1 130558Z 05013KT M02/M12 A3039 RMK A01 T10201118  RH  047%=      5-min Rain = 0
KSW1 130559Z 04013KT M02/M12 A3039 RMK A01 T10201118  RH  047%=      5-min Rain = 0

Page generated in 0.0749 seconds.